Eltham High School

Historical Weather Data

                  Temp     Hi    Low   Out         Wind        Wind    Hi    Hi   Wind   Heat          THSW                Rain  Solar   Solar Hi Solar         UV    Hi     Heat    Cool    In     In          Wind  Wind    ISS   Arc.
  Date    Time     Out   Temp   Temp   Hum    Dew Speed   Dir   Run Speed   Dir  Chill  Index    THW  Index   Bar    Rain  Rate   Rad.  Energy    Rad.    UV   Dose   UV     D-D     D-D    Temp   Hum     ET   Samp   Tx   Recept  Int.
------------------------------------------------------------------------------------------------------------------------------------------------------------------------------------------------------------------------------------------
22/01/23 12:30a   18.4   18.5   18.4    86   16.1   0.0   ---  0.00   0.0   ---   18.4   18.9   18.9   17.5  1027.8  0.00   0.0     0     0.00      0     0.0  0.00   0.0   0.000   0.002   24.6    50    0.00   678    1     99.1   30 
22/01/23  1:00a   18.3   18.5   18.3    87   16.1   0.0   ---  0.00   0.0   ---   18.3   18.8   18.8   17.3  1027.6  0.00   0.0     0     0.00      0     0.0  0.00   0.0   0.001   0.000   24.6    50    0.00   682    1     99.7   30 
22/01/23  1:30a   18.1   18.3   18.1    88   16.1   0.0   ---  0.00   0.0   ---   18.1   18.6   18.6   17.1  1027.5  0.00   0.0     0     0.00      0     0.0  0.00   0.0   0.005   0.000   24.6    51    0.00   683    1     99.9   30 
22/01/23  2:00a   17.8   18.1   17.8    89   15.9   0.0   ---  0.00   0.0   ---   17.8   18.2   18.2   16.8  1027.5  0.00   0.0     0     0.00      0     0.0  0.00   0.0   0.012   0.000   24.7    50    0.00   682    1     99.7   30 
22/01/23  2:30a   17.4   17.8   17.4    88   15.4   0.0   ---  0.00   0.0   ---   17.4   17.8   17.8   16.3  1027.3  0.00   0.0     0     0.00      0     0.0  0.00   0.0   0.019   0.000   24.7    49    0.00   677    1     99.0   30 
22/01/23  3:00a   17.2   17.4   17.2    88   15.2   0.0   ---  0.00   0.0   ---   17.2   17.5   17.5   16.0  1027.1  0.00   0.0     0     0.00      0     0.0  0.00   0.0   0.024   0.000   24.7    50    0.00   677    1     99.0   30 
22/01/23  3:30a   16.8   17.2   16.8    89   15.0   0.0   ---  0.00   0.0   ---   16.8   17.1   17.1   15.6  1027.3  0.00   0.0     0     0.00      0     0.0  0.00   0.0   0.031   0.000   24.6    50    0.00   673    1     98.4   30 
22/01/23  4:00a   16.9   16.9   16.8    90   15.3   0.0   ---  0.00   0.0   ---   16.9   17.3   17.3   15.8  1027.1  0.00   0.0     0     0.00      0     0.0  0.00   0.0   0.029   0.000   24.6    50    0.00   676    1     98.8   30 
22/01/23  4:30a   17.1   17.1   16.9    89   15.3   0.0   ---  0.00   0.0   ---   17.1   17.4   17.4   15.9  1027.1  0.00   0.0     0     0.00      0     0.0  0.00   0.0   0.025   0.000   24.6    51    0.00   674    1     98.5   30 
22/01/23  5:00a   17.2   17.2   17.1    88   15.2   0.0   ---  0.00   0.0   ---   17.2   17.6   17.6   16.1  1027.4  0.00   0.0     0     0.00      0     0.0  0.00   0.0   0.023   0.000   24.6    51    0.00   676    1     98.8   30 
22/01/23  5:30a   17.3   17.3   17.2    87   15.1   0.0   ---  0.00   0.0   ---   17.3   17.7   17.7   16.2  1027.8  0.00   0.0     0     0.00      0     0.0  0.00   0.0   0.021   0.000   24.7    51    0.00   653    1     95.5   30 
22/01/23  6:00a   17.6   17.6   17.3    86   15.2   0.0   ---  0.00   0.0   ---   17.6   17.9   17.9   16.4  1028.2  0.00   0.0     0     0.00      0     0.0  0.00   0.0   0.016   0.000   24.7    51    0.00   656    1     95.9   30 
22/01/23  6:30a   17.4   17.6   17.4    87   15.3   0.0   ---  0.00   0.0   ---   17.4   17.8   17.8   16.3  1028.4  0.00   0.0     1     0.04      7     0.0  0.00   0.0   0.019   0.000   24.7    51    0.00   647    1     94.6   30 
22/01/23  7:00a   17.6   17.6   17.4    87   15.4   0.0   ---  0.00   0.0   ---   17.6   18.0   18.0   17.7  1028.7  0.00   0.0    22     0.95     32     0.0  0.00   0.0   0.015   0.000   24.7    51    0.00   657    1     96.1   30 
22/01/23  7:30a   17.8   17.8   17.6    86   15.4   0.0   ---  0.00   0.0   ---   17.8   18.1   18.1   18.2  1029.2  0.00   0.0    40     1.72     60     0.0  0.00   0.0   0.012   0.000   24.6    51    0.00   645    1     94.3   30 
22/01/23  8:00a   17.9   17.9   17.7    85   15.4   0.0   ---  0.00   0.0   ---   17.9   18.3   18.3   18.9  1029.4  0.00   0.0    69     2.97    104     0.0  0.00   0.0   0.008   0.000   24.7    51    0.03   654    1     95.6   30 
22/01/23  8:30a   18.9   18.9   17.9    83   15.9   0.0   ---  0.00   0.0   ---   18.9   19.4   19.4   22.4  1029.6  0.00   0.0   211     9.07    466     0.3  0.06   0.9   0.000   0.012   24.7    51    0.00   652    1     95.3   30 
22/01/23  9:00a   20.2   20.2   18.9    76   15.9   0.0   ---  0.00   0.0   ---   20.2   20.8   20.8   26.3  1029.5  0.00   0.0   451    19.40    490     1.2  0.26   1.5   0.000   0.039   24.6    50    0.00   647    1     94.6   30 
22/01/23  9:30a   20.9   20.9   20.2    75   16.3   0.0   ---  0.00   0.0   ---   20.9   21.3   21.3   27.1  1029.5  0.00   0.0   508    21.85    601     1.9  0.41   2.3   0.000   0.053   24.5    51    0.18   675    1     98.7   30 
22/01/23 10:00a   22.1   22.1   20.9    70   16.3   0.0   ---  0.00   0.0   ---   22.1   22.4   22.4   28.4  1029.4  0.00   0.0   695    29.89    795     2.7  0.58   3.2   0.000   0.078   24.5    52    0.33   663    1     96.9   30 
22/01/23 10:30a   22.3   23.1   22.1    63   14.9   0.0   ---  0.00   0.0   ---   22.3   22.4   22.4   27.7  1029.3  0.00   0.0   522    22.45    896     3.0  0.64   3.7   0.000   0.082   24.6    51    0.00   652    1     95.3   30 
22/01/23 11:00a   22.3   22.7   22.1    62   14.7   0.0   ---  0.00   0.0   ---   22.3   22.4   22.4   27.9  1029.0  0.00   0.0   571    24.56    944     3.9  0.84   5.3   0.000   0.083   24.5    50    0.33   671    1     98.1   30 
22/01/23 11:30a   23.4   23.5   22.4    60   15.2   0.0   ---  0.00   0.0   ---   23.4   23.8   23.8   30.2  1028.9  0.00   0.0   783    33.67   1109     5.2  1.11   6.2   0.000   0.106   24.5    50    0.00   670    1     98.0   30 
22/01/23 12:00p   24.2   24.2   23.4    59   15.6   0.0   ---  0.00   0.0   ---   24.2   24.6   24.6   31.0  1028.7  0.00   0.0   762    32.77   1262     5.4  1.16   7.2   0.000   0.122   24.3    52    0.00   682    1     99.7   30 
22/01/23 12:30p   24.9   25.5   24.2    56   15.5   0.0   ---  0.00   0.0   ---   24.9   25.1   25.1   30.9  1028.4  0.00   0.0   949    40.81   1406     6.3  1.35   8.0   0.000   0.137   24.4    52    0.48   666    1     97.4   30 
22/01/23  1:00p   23.9   25.3   23.9    64   16.7   0.0   ---  0.00   0.0   ---   23.9   24.6   24.6   29.2  1028.2  0.00   0.0   455    19.57    575     4.8  1.03   7.4   0.000   0.116   24.3    53    0.43   688    1    100.0   30 
22/01/23  1:30p   23.9   24.1   23.6    64   16.7   0.0   ---  0.00   0.0   ---   23.9   24.6   24.6   29.3  1027.9  0.00   0.0   469    20.17    613     5.1  1.09   6.7   0.000   0.116   24.3    52    0.00   692    1    100.0   30 
22/01/23  2:00p   25.5   25.8   23.9    59   16.9   0.0   ---  0.00   0.0   ---   25.5   25.9   25.9   32.1  1027.5  0.00   0.0  1078    46.36   1241     7.5  1.61   8.6   0.000   0.149   24.5    51    0.46   682    1     99.7   30 
22/01/23  2:30p   25.3   25.7   25.1    59   16.7   0.0   ---  0.00   0.0   ---   25.3   25.7   25.7   31.8  1026.9  0.00   0.0  1020    43.87   1113     7.3  1.56   8.1   0.000   0.145   24.4    55    0.00   682    1     99.7   30 
22/01/23  3:00p   24.3   25.3   24.3    63   16.8   0.0   ---  0.00   0.0   ---   24.3   24.9   24.9   28.3  1026.9  0.00   0.0   329    14.15    446     3.5  0.75   4.4   0.000   0.125   24.5    52    0.41   692    1    100.0   30 
22/01/23  3:30p   24.6   24.8   24.3    63   17.0   0.0   ---  0.00   0.0   ---   24.6   25.1   25.1   28.6  1026.8  0.00   0.0   329    14.15   1051     3.5  0.75   6.2   0.000   0.130   24.6    53    0.00   682    1     99.7   30 
22/01/23  4:00p   25.1   25.2   24.4    61   17.1   0.0   ---  0.00   0.0   ---   25.1   25.6   25.6   30.6  1026.6  0.00   0.0   473    20.34   1129     3.9  0.84   5.9   0.000   0.141   24.4    55    0.30   675    1     98.7   30 
22/01/23  4:30p   25.2   25.6   24.5    61   17.2   0.0   ---  0.00   0.0   ---   25.2   25.7   25.7   31.2  1026.7  0.00   0.0   503    21.63    905     3.4  0.73   4.7   0.000   0.144   24.6    53    0.00   678    1     99.1   30 
22/01/23  5:00p   25.0   25.2   24.7    63   17.5   0.0   ---  0.00   0.0   ---   25.0   25.6   25.6   32.2  1026.5  0.00   0.0   664    28.56    816     3.3  0.71   4.0   0.000   0.139   24.8    55    0.38   660    1     96.5   30 
22/01/23  5:30p   24.9   25.0   24.7    63   17.4   0.0   ---  0.00   0.0   ---   24.9   25.6   25.6   33.5  1026.3  0.00   0.0   677    29.11    765     2.8  0.60   3.2   0.000   0.138   24.6    54    0.00   656    1     95.9   30 
22/01/23  6:00p   24.6   24.9   24.5    64   17.3   0.0   ---  0.00   0.0   ---   24.6   25.2   25.2   33.3  1026.8  0.00   0.0   583    25.07    707     1.9  0.41   2.4   0.000   0.131   24.9    53    0.38   676    1     98.8   30 
22/01/23  6:30p   24.2   24.6   24.1    66   17.4   0.0   ---  0.00   0.0   ---   24.2   24.9   24.9   30.9  1027.1  0.00   0.0   381    16.39    564     1.1  0.24   1.4   0.000   0.122   24.7    56    0.00   696    1    100.0   30 
22/01/23  7:00p   23.6   24.3   23.6    67   17.1   0.0   ---  0.00   0.0   ---   23.6   24.4   24.4   32.2  1027.3  0.00   0.0   413    17.76    473     0.8  0.17   0.9   0.000   0.110   24.7    53    0.25   691    1    100.0   30 
22/01/23  7:30p   22.7   23.7   22.7    71   17.1   0.0   ---  0.00   0.0   ---   22.7   23.3   23.3   27.3  1027.4  0.00   0.0   211     9.07    357     0.2  0.04   0.5   0.000   0.090   24.8    56    0.00   683    1     99.9   30 
22/01/23  8:00p   21.7   22.7   21.7    76   17.3   0.0   ---  0.00   0.0   ---   21.7   22.2   22.2   21.8  1027.8  0.00   0.0    82     3.53    134     0.0  0.00   0.0   0.000   0.071   24.6    55    0.10   660    1     96.5   30 
22/01/23  8:30p   21.0   21.7   21.0    80   17.4   0.0   ---  0.00   0.0   ---   21.0   21.7   21.7   20.7  1028.1  0.00   0.0    36     1.55     53     0.0  0.00   0.0   0.000   0.056   24.6    54    0.00   645    1     94.3   30 
22/01/23  9:00p   20.4   21.0   20.4    82   17.3   0.0   ---  0.00   0.0   ---   20.4   21.3   21.3   20.1  1028.4  0.00   0.0     7     0.30     19     0.0  0.00   0.0   0.000   0.044   24.5    57    0.03   651    1     95.2   30 
22/01/23  9:30p   19.9   20.4   19.9    85   17.3   0.0   ---  0.00   0.0   ---   19.9   20.8   20.8   19.4  1028.5  0.00   0.0     0     0.00      0     0.0  0.00   0.0   0.000   0.034   24.5    53    0.00   644    1     94.2   30 
22/01/23 10:00p   19.5   19.9   19.5    87   17.3   0.0   ---  0.00   0.0   ---   19.5   20.3   20.3   18.9  1028.4  0.00   0.0     0     0.00      0     0.0  0.00   0.0   0.000   0.024   24.5    58    0.03   657    1     96.1   30 
22/01/23 10:30p   19.2   19.5   19.2    88   17.1   0.0   ---  0.00   0.0   ---   19.2   19.9   19.9   18.5  1028.5  0.00   0.0     0     0.00      0     0.0  0.00   0.0   0.000   0.017   24.4    55    0.00   671    1     98.1   30 
22/01/23 11:00p   19.2   19.2   19.1    88   17.2   0.0   ---  0.00   0.0   ---   19.2   19.9   19.9   18.6  1028.7  0.00   0.0     0     0.00      0     0.0  0.00   0.0   0.000   0.019   24.5    55    0.00   691    1    100.0   30 
22/01/23 11:30p   19.2   19.2   19.1    88   17.1   0.0   ---  0.00   0.0   ---   19.2   19.9   19.9   18.5  1028.8  0.00   0.0     0     0.00      0     0.0  0.00   0.0   0.000   0.017   24.6    57    0.00   680    1     99.4   30 
23/01/23 12:00a   18.9   19.2   18.9    88   16.9   0.0   ---  0.00   0.0   ---   18.9   19.6   19.6   18.2  1028.4  0.00   0.0     0     0.00      0     0.0  0.00   0.0   0.000   0.012   24.6    57    0.00   670    1     98.0   30 
23/01/23 12:30a   18.4   18.9   18.4    89   16.6   0.0   ---  0.00   0.0   ---   18.4   19.0   19.0   17.6  1028.1  0.00   0.0     0     0.00      0     0.0  0.00   0.0   0.000   0.002   24.6    56    0.00   666    1     97.4   30 
23/01/23  1:00a   17.9   18.4   17.9    89   16.0   0.0   ---  0.00   0.0   ---   17.9   18.3   18.3   16.8  1028.1  0.00   0.0     0     0.00      0     0.0  0.00   0.0   0.009   0.000   24.7    55    0.00   674    1     98.5   30 
23/01/23  1:30a   17.6   17.9   17.5    91   16.1   0.0   ---  0.00   0.0   ---   17.6   18.0   18.0   16.5  1027.9  0.00   0.0     0     0.00      0     0.0  0.00   0.0   0.016   0.000   24.7    55    0.00   674    1     98.5   30 
23/01/23  2:00a   17.4   17.6   17.4    92   16.1   0.0   ---  0.00   0.0   ---   17.4   17.9   17.9   16.4  1027.7  0.00   0.0     0     0.00      0     0.0  0.00   0.0   0.019   0.000   24.6    55    0.00   683    1     99.9   30 
23/01/23  2:30a   17.8   17.8   17.4    93   16.7   0.0   ---  0.00   0.0   ---   17.8   18.3   18.3   16.9  1027.3  0.00   0.0     0     0.00      0     0.0  0.00   0.0   0.010   0.000   24.7    55    0.00   654    1     95.6   30 
23/01/23  3:00a   17.9   18.0   17.8    92   16.6   0.0   ---  0.00   0.0   ---   17.9   18.4   18.4   17.0  1027.2  0.00   0.0     0     0.00      0     0.0  0.00   0.0   0.008   0.000   24.6    55    0.00   685    1    100.0   30 
23/01/23  3:30a   18.1   18.1   17.9    90   16.4   0.0   ---  0.00   0.0   ---   18.1   18.6   18.6   17.1  1027.1  0.00   0.0     0     0.00      0     0.0  0.00   0.0   0.006   0.000   24.6    55    0.00   685    1    100.0   30 
23/01/23  4:00a   18.1   18.1   18.1    89   16.3   0.0   ---  0.00   0.0   ---   18.1   18.6   18.6   17.2  1027.1  0.00   0.0     0     0.00      0     0.0  0.00   0.0   0.005   0.000   24.6    55    0.00   652    1     95.3   30 
23/01/23  4:30a   18.2   18.2   18.1    89   16.3   0.0   ---  0.00   0.0   ---   18.2   18.7   18.7   17.2  1027.1  0.00   0.0     0     0.00      0     0.0  0.00   0.0   0.003   0.000   24.6    55    0.00   643    1     94.0   30 
23/01/23  5:00a   18.2   18.2   18.1    88   16.1   0.0   ---  0.00   0.0   ---   18.2   18.7   18.7   17.2  1027.2  0.00   0.0     0     0.00      0     0.0  0.00   0.0   0.003   0.000   24.5    55    0.00   633    1     92.5   30 
23/01/23  5:30a   18.1   18.2   18.1    88   16.0   0.0   ---  0.00   0.0   ---   18.1   18.5   18.5   17.0  1027.4  0.00   0.0     0     0.00      0     0.0  0.00   0.0   0.006   0.000   24.6    54    0.00   630    1     92.1   30 
23/01/23  6:00a   17.9   18.1   17.9    88   15.9   0.0   ---  0.00   0.0   ---   17.9   18.4   18.4   16.9  1027.5  0.00   0.0     0     0.00      0     0.0  0.00   0.0   0.008   0.000   24.6    54    0.00   617    1     90.2   30 
23/01/23  6:30a   17.8   17.9   17.8    88   15.8   0.0   ---  0.00   0.0   ---   17.8   18.2   18.2   16.7  1027.6  0.00   0.0     2     0.09      9     0.0  0.00   0.0   0.012   0.000   24.6    54    0.00   617    1     90.2   30 
23/01/23  7:00a   17.8   17.8   17.8    89   16.0   0.0   ---  0.00   0.0   ---   17.8   18.3   18.3   17.9  1027.9  0.00   0.0    22     0.95     39     0.0  0.00   0.0   0.010   0.000   24.6    54    0.00   620    1     90.6   30 
23/01/23  7:30a   18.3   18.3   17.8    87   16.1   0.0   ---  0.00   0.0   ---   18.3   18.8   18.8   19.3  1028.3  0.00   0.0    56     2.41     77     0.0  0.00   0.0   0.000   0.000   24.5    54    0.00   601    1     87.9   30 
23/01/23  8:00a   18.9   18.9   18.3    85   16.3   0.0   ---  0.00   0.0   ---   18.9   19.4   19.4   20.9  1028.5  0.00   0.0   109     4.69    130     0.0  0.00   0.0   0.000   0.012   24.6    55    0.05   610    1     89.2   30 
23/01/23  8:30a   19.5   19.5   18.9    81   16.2   0.0   ---  0.00   0.0   ---   19.5   20.2   20.2   22.2  1028.7  0.00   0.0   155     6.67    178     0.2  0.04   0.5   0.000   0.024   24.5    55    0.00   619    1     90.5   30 
23/01/23  9:00a   19.9   19.9   19.5    78   16.0   0.0   ---  0.00   0.0   ---   19.9   20.6   20.6   22.7  1028.7  0.00   0.0   179     7.70    216     0.7  0.15   0.9   0.000   0.034   24.6    54    0.10   634    1     92.7   30 
23/01/23  9:30a   20.6   20.6   19.9    77   16.4   0.0   ---  0.00   0.0   ---   20.6   21.2   21.2   24.4  1028.5  0.00   0.0   272    11.70    468     1.2  0.26   1.6   0.000   0.046   24.6    52    0.00   644    1     94.2   30 
23/01/23 10:00a   21.9   21.9   20.6    71   16.4   0.0   ---  0.00   0.0   ---   21.9   22.3   22.3   28.2  1028.3  0.00   0.0   587    25.24    863     2.5  0.54   3.3   0.000   0.075   24.4    55    0.25   612    1     89.5   30 
23/01/23 10:30a   22.5   22.5   21.9    68   16.3   0.0   ---  0.00   0.0   ---   22.5   22.9   22.9   29.1  1028.0  0.00   0.0   744    32.00    793     3.7  0.79   4.3   0.000   0.087   24.5    56    0.00   641    1     93.7   30 
23/01/23 11:00a   23.6   23.8   22.5    63   16.2   0.0   ---  0.00   0.0   ---   23.6   24.2   24.2   30.1  1027.8  0.00   0.0   867    37.29    932     4.8  1.03   5.3   0.000   0.110   24.4    56    0.48   658    1     96.2   30 
23/01/23 11:30a   24.3   24.4   23.3    60   16.1   0.0   ---  0.00   0.0   ---   24.3   24.7   24.7   30.4  1027.5  0.00   0.0   893    38.40    912     5.7  1.22   6.1   0.000   0.125   24.3    55    0.00   676    1     98.8   30 
23/01/23 12:00p   24.8   24.9   24.2    57   15.7   0.0   ---  0.00   0.0   ---   24.8   25.1   25.1   31.1  1027.1  0.00   0.0   918    39.48    937     6.6  1.41   6.9   0.000   0.135   24.5    52    0.56   631    1     92.3   30 
23/01/23 12:30p   25.8   25.8   24.8    54   15.8   0.0   ---  0.00   0.0   ---   25.8   26.0   26.0   31.3  1026.7  0.00   0.0   963    41.41    977     7.3  1.56   7.6   0.000   0.155   24.3    56    0.00   673    1     98.4   30 
23/01/23  1:00p   26.7   26.7   25.8    47   14.5   0.0   ---  0.00   0.0   ---   26.7   26.6   26.6   31.8  1026.2  0.00   0.0   989    42.53   1004     7.8  1.67   8.1   0.000   0.175   24.3    53    0.61   684    1    100.0   30 
23/01/23  1:30p   27.6   27.6   26.7    46   14.9   0.0   ---  0.00   0.0   ---   27.6   27.5   27.5   32.9  1025.6  0.00   0.0  1019    43.82   1055     8.2  1.76   8.3   0.000   0.192   24.5    55    0.00   684    1    100.0   30 
23/01/23  2:00p   27.6   27.6   26.4    45   14.6   0.0   ---  0.00   0.0   ---   27.6   27.4   27.4   33.7  1025.3  0.00   0.0   711    30.58   1165     6.3  1.35   8.3   0.000   0.192   24.5    55    0.56   695    1    100.0   30 
23/01/23  2:30p   28.3   28.3   27.3    42   14.2   0.0   ---  0.00   0.0   ---   28.3   28.3   28.3   33.8  1025.0  0.00   0.0   951    40.90   1106     7.2  1.54   8.1   0.000   0.208   24.6    52    0.00   687    1    100.0   30 
23/01/23  3:00p   28.8   28.8   28.1    37   12.6   0.0   ---  0.00   0.0   ---   28.8   28.6   28.6   34.5  1024.6  0.00   0.0   964    41.46    984     7.3  1.56   7.6   0.000   0.218   24.7    55    0.61   686    1    100.0   30 
23/01/23  3:30p   28.6   28.8   27.8    39   13.2   0.0   ---  0.00   0.0   ---   28.6   28.4   28.4   34.4  1024.3  0.00   0.0   801    34.45    976     5.9  1.26   6.9   0.000   0.213   24.7    52    0.00   688    1    100.0   30 
23/01/23  4:00p   28.4   28.7   28.3    38   12.8   0.0   ---  0.00   0.0   ---   28.4   28.2   28.2   34.4  1023.9  0.00   0.0   847    36.43    886     5.6  1.20   6.0   0.000   0.211   24.8    53    0.53   689    1    100.0   30 
23/01/23  4:30p   29.0   29.0   28.2    34   11.5   0.0   ---  0.00   0.0   ---   29.0   28.5   28.5   34.7  1023.9  0.00   0.0   758    32.60    802     4.6  0.99   5.1   0.000   0.222   25.2    51    0.00   680    1     99.4   30 
23/01/23  5:00p   28.9   29.0   28.6    31   10.1   0.0   ---  0.00   0.0   ---   28.9   28.1   28.1   34.3  1023.5  0.00   0.0   671    28.86    714     3.6  0.77   4.1   0.000   0.220   25.4    50    0.48   662    1     96.8   30 
23/01/23  5:30p   29.2   29.3   28.8    30    9.8   0.0   ---  0.00   0.0   ---   29.2   28.2   28.2   34.5  1023.1  0.00   0.0   582    25.03    619     2.7  0.58   3.1   0.000   0.226   25.5    48    0.00   666    1     97.4   30 
23/01/23  6:00p   28.8   29.3   28.5    30    9.5   0.0   ---  0.00   0.0   ---   28.8   27.8   27.8   33.4  1022.7  0.00   0.0   454    19.52    536     1.9  0.41   2.3   0.000   0.218   25.5    47    0.36   685    1    100.0   30 
23/01/23  6:30p   28.7   28.8   28.7    32   10.3   0.0   ---  0.00   0.0   ---   28.7   27.8   27.8   33.5  1022.7  0.00   0.0   384    16.51    454     1.3  0.28   1.6   0.000   0.215   25.5    47    0.00   693    1    100.0   30 
23/01/23  7:00p   27.3   28.7   27.3    49   15.7   0.0   ---  0.00   0.0   ---   27.3   27.4   27.4   32.1  1022.8  0.00   0.0   272    11.70    352     0.7  0.15   1.0   0.000   0.187   25.5    47    0.23   672    1     98.2   30 
23/01/23  7:30p   26.7   27.3   26.6    51   15.7   0.0   ---  0.00   0.0   ---   26.7   26.8   26.8   29.4  1022.9  0.00   0.0   161     6.92    223     0.2  0.04   0.5   0.000   0.174   25.5    48    0.00   677    1     99.0   30 
23/01/23  8:00p   26.1   26.7   26.1    53   15.7   0.0   ---  0.00   0.0   ---   26.1   26.3   26.3   25.4  1023.0  0.00   0.0    56     2.41    109     0.0  0.00   0.0   0.000   0.161   25.3    49    0.08   651    1     95.2   30 
23/01/23  8:30p   25.3   26.1   25.3    56   15.9   0.0   ---  0.00   0.0   ---   25.3   25.6   25.6   24.3  1023.3  0.00   0.0    19     0.82     33     0.0  0.00   0.0   0.000   0.146   25.2    49    0.00   638    1     93.3   30 
23/01/23  9:00p   24.6   25.3   24.6    59   16.0   0.0   ---  0.00   0.0   ---   24.6   24.9   24.9   23.4  1023.5  0.00   0.0     1     0.04      7     0.0  0.00   0.0   0.000   0.130   25.3    50    0.03   619    1     90.5   30 
23/01/23  9:30p   23.3   24.6   23.3    64   16.1   0.0   ---  0.00   0.0   ---   23.3   23.9   23.9   22.5  1023.7  0.00   0.0     0     0.00      0     0.0  0.00   0.0   0.000   0.104   25.2    50    0.00   623    1     91.1   30 
23/01/23 10:00p   22.0   23.3   22.0    69   16.0   0.0   ---  0.00   0.0   ---   22.0   22.3   22.3   20.8  1023.7  0.00   0.0     0     0.00      0     0.0  0.00   0.0   0.000   0.076   24.9    50    0.03   632    1     92.4   30 
23/01/23 10:30p   20.9   22.0   20.9    72   15.7   0.0   ---  0.00   0.0   ---   20.9   21.2   21.2   19.7  1023.8  0.00   0.0     0     0.00      0     0.0  0.00   0.0   0.000   0.054   24.4    49    0.00   645    1     94.3   30 
23/01/23 11:00p   20.0   20.9   20.0    77   15.8   0.0   ---  0.00   0.0   ---   20.0   20.6   20.6   19.1  1023.5  0.00   0.0     0     0.00      0     0.0  0.00   0.0   0.000   0.035   24.5    50    0.03   652    1     95.3   30 
23/01/23 11:30p   19.3   20.0   19.3    80   15.7   0.0   ---  0.00   0.0   ---   19.3   19.8   19.8   18.3  1023.5  0.00   0.0     0     0.00      0     0.0  0.00   0.0   0.000   0.020   24.3    53    0.00   665    1     97.2   30 
24/01/23 12:00a   18.4   19.2   18.4    83   15.5   0.0   ---  0.00   0.0   ---   18.4   18.9   18.9   17.4  1023.5  0.00   0.0     0     0.00      0     0.0  0.00   0.0   0.000   0.002   24.5    51    0.03   678    1     99.1   30 
24/01/23 12:30a   18.1   18.4   18.1    82   14.9   0.0   ---  0.00   0.0   ---   18.1   18.4   18.4   16.8  1023.5  0.00   0.0     0     0.00      0     0.0  0.00   0.0   0.006   0.000   24.5    52    0.00   666    1     97.4   30 
24/01/23  1:00a   17.4   18.1   17.4    84   14.7   0.0   ---  0.00   0.0   ---   17.4   17.7   17.7   16.2  1023.3  0.00   0.0     0     0.00      0     0.0  0.00   0.0   0.019   0.000   24.6    49    0.03   667    1     97.5   30 
24/01/23  1:30a   16.8   17.4   16.8    85   14.3   0.0   ---  0.00   0.0   ---   16.8   17.1   17.1   15.5  1023.3  0.00   0.0     0     0.00      0     0.0  0.00   0.0   0.031   0.000   24.6    51    0.00   657    1     96.1   30 
24/01/23  2:00a   16.6   16.9   16.6    86   14.3   0.0   ---  0.00   0.0   ---   16.6   16.8   16.8   15.2  1023.2  0.00   0.0     0     0.00      0     0.0  0.00   0.0   0.036   0.000   24.6    51    0.00   659    1     96.3   30 
24/01/23  2:30a   16.3   16.7   16.3    85   13.8   0.0   ---  0.00   0.0   ---   16.3   16.4   16.4   14.8  1022.8  0.00   0.0     0     0.00      0     0.0  0.00   0.0   0.042   0.000   24.6    50    0.00   669    1     97.8   30 
24/01/23  3:00a   16.3   16.3   16.2    85   13.8   0.0   ---  0.00   0.0   ---   16.3   16.4   16.4   14.8  1022.6  0.00   0.0     0     0.00      0     0.0  0.00   0.0   0.043   0.000   24.6    50    0.00   679    1     99.3   30 
24/01/23  3:30a   16.3   16.4   16.3    84   13.6   0.0   ---  0.00   0.0   ---   16.3   16.4   16.4   14.8  1022.6  0.00   0.0     0     0.00      0     0.0  0.00   0.0   0.043   0.000   24.6    50    0.00   674    1     98.5   30 
24/01/23  4:00a   16.1   16.3   16.1    85   13.5   0.0   ---  0.00   0.0   ---   16.1   16.2   16.2   14.6  1022.6  0.00   0.0     0     0.00      0     0.0  0.00   0.0   0.047   0.000   24.6    49    0.03   680    1     99.4   30 
24/01/23  4:30a   15.8   16.1   15.8    86   13.4   0.0   ---  0.00   0.0   ---   15.8   15.9   15.9   14.3  1022.6  0.00   0.0     0     0.00      0     0.0  0.00   0.0   0.053   0.000   24.8    48    0.00   677    1     99.0   30 
24/01/23  5:00a   15.3   15.8   15.3    87   13.1   0.0   ---  0.00   0.0   ---   15.3   15.3   15.3   13.7  1022.8  0.00   0.0     0     0.00      0     0.0  0.00   0.0   0.064   0.000   24.8    49    0.00   679    1     99.3   30 
24/01/23  5:30a   15.2   15.3   15.2    88   13.2   0.0   ---  0.00   0.0   ---   15.2   15.2   15.2   13.6  1022.8  0.00   0.0     0     0.00      0     0.0  0.00   0.0   0.066   0.000   24.7    49    0.00   682    1     99.7   30 
24/01/23  6:00a   14.7   15.2   14.7    89   12.9   0.0   ---  0.00   0.0   ---   14.7   14.7   14.7   13.1  1023.0  0.00   0.0     0     0.00      0     0.0  0.00   0.0   0.076   0.000   24.7    49    0.00   686    1    100.0   30 
24/01/23  6:30a   14.3   14.7   14.3    91   12.9   0.0   ---  0.00   0.0   ---   14.3   14.4   14.4   12.8  1023.1  0.00   0.0     4     0.17     12     0.0  0.00   0.0   0.083   0.000   24.7    48    0.00   682    1     99.7   30 
24/01/23  7:00a   14.5   14.5   14.3    92   13.2   0.0   ---  0.00   0.0   ---   14.5   14.6   14.6   14.5  1023.1  0.00   0.0    33     1.42     54     0.0  0.00   0.0   0.080   0.000   24.8    48    0.00   680    1     99.4   30 
24/01/23  7:30a   15.7   15.7   14.5    90   14.0   0.0   ---  0.00   0.0   ---   15.7   15.8   15.8   17.3  1023.3  0.00   0.0   101     4.34    146     0.0  0.00   0.0   0.056   0.000   24.7    49    0.00   682    1     99.7   30 
24/01/23  8:00a   17.2   17.2   15.7    86   14.8   0.0   ---  0.00   0.0   ---   17.2   17.4   17.4   19.6  1023.5  0.25   0.0   150     6.45    225     0.0  0.00   0.0   0.024   0.000   24.7    49    0.08   684    1    100.0   30 
24/01/23  8:30a   17.3   17.5   17.2    86   15.0   0.0   ---  0.00   0.0   ---   17.3   17.7   17.7   18.6  1023.8  0.00   0.0    96     4.13    132     0.1  0.02   0.5   0.021   0.000   24.6    49    0.00   691    1    100.0   30 
24/01/23  9:00a   17.9   17.9   17.3    83   15.0   0.0   ---  0.00   0.0   ---   17.9   18.2   18.2   20.1  1024.1  0.00   0.0   163     7.01    188     0.6  0.13   0.8   0.009   0.000   24.6    50    0.08   643    1     94.0   30 
24/01/23  9:30a   19.6   19.6   17.9    78   15.7   0.0   ---  0.00   0.0   ---   19.6   20.2   20.2   23.5  1024.1  0.00   0.0   282    12.13    371     1.3  0.28   1.4   0.000   0.027   24.6    50    0.00   644    1     94.2   30 
24/01/23 10:00a   20.1   20.1   19.6    76   15.7   0.0   ---  0.00   0.0   ---   20.1   20.7   20.7   22.8  1024.1  0.00   0.0   209     8.99    260     1.4  0.30   1.6   0.000   0.037   24.6    49    0.15   633    1     92.5   30 
24/01/23 10:30a   21.1   21.1   20.1    75   16.5   0.0   ---  0.00   0.0   ---   21.1   21.4   21.4   24.1  1023.6  0.00   0.0   263    11.31    306     1.8  0.39   2.2   0.000   0.057   24.5    51    0.00   650    1     95.0   30 
24/01/23 11:00a   22.6   22.6   21.1    74   17.7   0.0   ---  0.00   0.0   ---   22.6   23.2   23.2   27.7  1023.5  0.00   0.0   434    18.66    837     3.2  0.69   5.0   0.000   0.088   24.6    50    0.20   640    1     93.6   30 
24/01/23 11:30a   23.7   23.7   22.6    58   15.0   0.0   ---  0.00   0.0   ---   23.7   24.1   24.1   27.2  1023.5  0.00   0.0   311    13.37    868     3.1  0.66   5.2   0.000   0.112   24.4    50    0.00   647    1     94.6   30 
24/01/23 12:00p   20.5   23.8   20.5    79   16.7   0.0   ---  0.00   0.0   ---   20.5   21.3   21.3   22.0  1023.6  2.29  48.0   122     5.25    192     1.0  0.21   1.9   0.000   0.045   24.4    51    0.13   649    1     94.9   30 
24/01/23 12:30p   19.8   20.5   19.8    86   17.4   0.0   ---  0.00   0.0   ---   19.8   20.7   20.7   22.3  1023.7  2.03  51.3   184     7.91    239     1.5  0.32   2.0   0.000   0.031   24.4    51    0.00   690    1    100.0   30 
24/01/23  1:00p   20.3   20.3   19.6    90   18.6   0.0   ---  0.00   0.0   ---   20.3   21.3   21.3   22.7  1023.5  1.78  38.6   165     7.10    246     1.3  0.28   2.1   0.000   0.041   24.5    53    0.10   686    1    100.0   30 
24/01/23  1:30p   21.1   21.1   20.3    88   19.0   0.0   ---  0.00   0.0   ---   21.1   22.1   22.1   25.7  1023.3  0.00   0.0   346    14.88    485     2.9  0.62   4.1   0.000   0.057   24.5    54    0.00   631    1     92.3   30 
24/01/23  2:00p   23.5   23.5   21.1    78   19.4   0.0   ---  0.00   0.0   ---   23.5   24.7   24.7   31.3  1022.7  0.00   0.0   777    33.42   1035     6.1  1.31   7.8   0.000   0.108   24.3    54    0.33   662    1     96.8   30 
24/01/23  2:30p   26.1   26.1   23.5    63   18.5   0.0   ---  0.00   0.0   ---   26.1   26.9   26.9   32.9  1022.2  0.00   0.0   989    42.53   1095     7.6  1.63   8.3   0.000   0.162   24.4    56    0.00   690    1    100.0   30 
24/01/23  3:00p   27.2   27.2   26.2    52   16.5   0.0   ---  0.00   0.0   ---   27.2   27.4   27.4   33.2  1021.7  0.00   0.0   600    25.80    893     5.1  1.09   6.7   0.000   0.184   24.3    54    0.00   685    1    100.0   30 
24/01/23  3:30p   27.7   28.3   27.1    48   15.7   0.0   ---  0.00   0.0   ---   27.7   27.8   27.8   32.9  1021.9  0.00   0.0   515    22.15   1157     4.1  0.88   7.5   0.000   0.194   24.4    58    0.51   681    1     99.6   30 
24/01/23  4:00p   24.7   27.7   24.7    61   16.7   0.0   ---  0.00   0.0   ---   24.7   25.2   25.2   25.3  1022.4  1.52  21.1    70     3.01    156     0.4  0.09   1.3   0.000   0.133   24.3    55    0.23   674    1     98.5   30 
24/01/23  4:30p   19.0   24.7   19.0    84   16.2   0.0   ---  0.00   0.0   ---   19.0   19.6   19.6   19.0  1023.0 18.80 114.3    26     1.12     32     0.0  0.00   0.0   0.000   0.014   24.6    55    0.00   681    1     99.6   30 
24/01/23  5:00p   18.3   19.0   18.3    90   16.6   0.0   ---  0.00   0.0   ---   18.3   18.8   18.8   18.9  1022.8  4.06  85.6    62     2.67     98     0.1  0.02   0.5   0.001   0.000   24.3    57    0.03   636    1     93.0   30 
24/01/23  5:30p   18.6   18.6   18.2    92   17.2   0.0   ---  0.00   0.0   ---   18.6   19.2   19.2   19.4  1022.9  0.00   0.0    60     2.58     67     0.0  0.00   0.0   0.000   0.005   24.6    56    0.00   618    1     90.4   30 
24/01/23  6:00p   18.6   18.6   18.5    92   17.2   0.0   ---  0.00   0.0   ---   18.6   19.2   19.2   19.1  1023.6  0.25   0.0    40     1.72     49     0.0  0.00   0.0   0.000   0.005   24.5    59    0.03   575    1     84.1   30 
24/01/23  6:30p   17.4   18.6   17.4    90   15.7   0.0   ---  0.00   0.0   ---   17.4   17.8   17.8   17.1  1023.3  3.05  29.5    14     0.60     25     0.0  0.00   0.0   0.020   0.000   24.5    55    0.00   571    1     83.5   30 
24/01/23  7:00p   17.5   17.5   17.3    92   16.2   0.0   ---  0.00   0.0   ---   17.5   17.9   17.9   17.6  1022.9  1.27   4.6    21     0.90     35     0.0  0.00   0.0   0.017   0.000   24.6    55    0.00   625    1     91.4   30 
24/01/23  7:30p   18.2   18.2   17.4    94   17.2   0.0   ---  0.00   0.0   ---   18.2   18.8   18.8   21.8  1022.8  1.02   4.6   170     7.31    269     0.0  0.00   0.0   0.003   0.000   24.7    58    0.00   547    1     80.0   30 
24/01/23  8:00p   18.1   18.3   18.1    93   17.0   0.0   ---  0.00   0.0   ---   18.1   18.7   18.7   18.7  1023.0  0.25   1.3   117     5.03    234     0.0  0.00   0.0   0.005   0.000   24.5    57    0.08   588    1     86.0   30 
24/01/23  8:30p   17.9   18.2   17.9    93   16.7   0.0   ---  0.00   0.0   ---   17.9   18.4   18.4   17.2  1023.2  0.00   0.0    18     0.77     35     0.0  0.00   0.0   0.009   0.000   24.6    56    0.00   596    1     87.1   30 
24/01/23  9:00p   17.5   17.9   17.5    94   16.5   0.0   ---  0.00   0.0   ---   17.5   18.0   18.0   16.6  1023.7  0.00   0.0     1     0.04      7     0.0  0.00   0.0   0.017   0.000   24.7    55    0.00   616    1     90.1   30 
24/01/23  9:30p   17.3   17.5   17.3    94   16.3   0.0   ---  0.00   0.0   ---   17.3   17.7   17.7   16.3  1024.2  0.00   0.0     0     0.00      0     0.0  0.00   0.0   0.022   0.000   24.7    57    0.00   617    1     90.2   30 
24/01/23 10:00p   16.9   17.3   16.9    95   16.1   0.0   ---  0.00   0.0   ---   16.9   17.4   17.4   15.9  1024.4  0.00   0.0     0     0.00      0     0.0  0.00   0.0   0.029   0.000   24.6    57    0.00   625    1     91.4   30 
24/01/23 10:30p   16.4   16.9   16.4    95   15.6   0.0   ---  0.00   0.0   ---   16.4   16.8   16.8   15.3  1024.3  0.00   0.0     0     0.00      0     0.0  0.00   0.0   0.039   0.000   24.7    55    0.00   621    1     90.8   30 
24/01/23 11:00p   16.2   16.4   16.1    95   15.4   0.0   ---  0.00   0.0   ---   16.2   16.4   16.4   14.9  1024.1  0.00   0.0     0     0.00      0     0.0  0.00   0.0   0.045   0.000   24.8    56    0.00   609    1     89.0   30 
24/01/23 11:30p   15.7   16.2   15.7    95   14.9   0.0   ---  0.00   0.0   ---   15.7   15.9   15.9   14.4  1024.1  0.00   0.0     0     0.00      0     0.0  0.00   0.0   0.054   0.000   24.6    55    0.00   606    1     88.6   30 
25/01/23 12:00a   15.5   15.8   15.5    96   14.9   0.0   ---  0.00   0.0   ---   15.5   15.7   15.7   14.2  1024.1  0.00   0.0     0     0.00      0     0.0  0.00   0.0   0.059   0.000   24.8    54    0.00   615    1     89.9   30 
25/01/23 12:30a   15.8   15.8   15.4    96   15.2   0.0   ---  0.00   0.0   ---   15.8   16.1   16.1   14.6  1024.4  0.00   0.0     0     0.00      0     0.0  0.00   0.0   0.052   0.000   24.7    54    0.00   619    1     90.5   30 
25/01/23  1:00a   15.5   15.8   15.5    96   14.9   0.0   ---  0.00   0.0   ---   15.5   15.7   15.7   14.2  1024.3  0.00   0.0     0     0.00      0     0.0  0.00   0.0   0.059   0.000   24.8    54    0.00   620    1     90.6   30 
25/01/23  1:30a   15.1   15.5   15.1    96   14.4   0.0   ---  0.00   0.0   ---   15.1   15.3   15.3   13.7  1024.2  0.00   0.0     0     0.00      0     0.0  0.00   0.0   0.068   0.000   24.7    54    0.00   603    1     88.2   30 
25/01/23  2:00a   14.8   15.1   14.8    96   14.1   0.0   ---  0.00   0.0   ---   14.8   15.0   15.0   13.4  1023.9  0.00   0.0     0     0.00      0     0.0  0.00   0.0   0.074   0.000   24.8    53    0.00   615    1     89.9   30 
25/01/23  2:30a   14.4   14.8   14.3    96   13.8   0.0   ---  0.00   0.0   ---   14.4   14.6   14.6   13.0  1023.8  0.00   0.0     0     0.00      0     0.0  0.00   0.0   0.081   0.000   24.7    53    0.00   618    1     90.4   30 
25/01/23  3:00a   14.4   14.6   14.4    97   14.0   0.0   ---  0.00   0.0   ---   14.4   14.6   14.6   13.1  1023.6  0.00   0.0     0     0.00      0     0.0  0.00   0.0   0.081   0.000   24.8    53    0.00   583    1     85.2   30 
25/01/23  3:30a   14.2   14.4   14.2    97   13.8   0.0   ---  0.00   0.0   ---   14.2   14.4   14.4   12.8  1023.8  0.25   0.0     0     0.00      0     0.0  0.00   0.0   0.086   0.000   24.8    51    0.00   585    1     85.5   30 
25/01/23  4:00a   14.2   14.3   14.2    97   13.8   0.0   ---  0.00   0.0   ---   14.2   14.4   14.4   12.8  1023.6  0.00   0.0     0     0.00      0     0.0  0.00   0.0   0.086   0.000   24.7    52    0.00   572    1     83.6   30 
25/01/23  4:30a   14.2   14.2   14.2    97   13.8   0.0   ---  0.00   0.0   ---   14.2   14.4   14.4   12.8  1023.6  0.00   0.0     0     0.00      0     0.0  0.00   0.0   0.086   0.000   24.8    52    0.00   562    1     82.2   30 
25/01/23  5:00a   14.2   14.3   14.2    97   13.8   0.0   ---  0.00   0.0   ---   14.2   14.4   14.4   12.8  1023.9  0.00   0.0     0     0.00      0     0.0  0.00   0.0   0.086   0.000   24.8    51    0.00   575    1     84.1   30 
25/01/23  5:30a   14.4   14.4   14.2    97   13.9   0.0   ---  0.00   0.0   ---   14.4   14.6   14.6   13.0  1024.1  0.00   0.0     0     0.00      0     0.0  0.00   0.0   0.082   0.000   24.6    52    0.00   554    1     81.0   30 
25/01/23  6:00a   14.6   14.6   14.4    97   14.1   0.0   ---  0.00   0.0   ---   14.6   14.8   14.8   13.2  1024.2  0.00   0.0     0     0.00      0     0.0  0.00   0.0   0.079   0.000   24.8    52    0.00   551    1     80.6   30 
25/01/23  6:30a   14.8   14.8   14.6    97   14.3   0.0   ---  0.00   0.0   ---   14.8   15.0   15.0   13.4  1024.1  0.00   0.0     1     0.04      5     0.0  0.00   0.0   0.074   0.000   24.7    52    0.00   593    1     86.7   30 
25/01/23  7:00a   15.2   15.2   14.8    97   14.7   0.0   ---  0.00   0.0   ---   15.2   15.5   15.5   15.2  1024.3  0.00   0.0    26     1.12     65     0.0  0.00   0.0   0.065   0.000   24.7    51    0.00   615    1     89.9   30 
25/01/23  7:30a   15.6   15.6   15.2    97   15.1   0.0   ---  0.00   0.0   ---   15.6   15.9   15.9   17.4  1024.7  0.00   0.0   102     4.39    146     0.0  0.00   0.0   0.057   0.000   24.8    53    0.00   540    1     78.9   30 
25/01/23  8:00a   16.2   16.2   15.6    98   15.9   0.0   ---  0.00   0.0   ---   16.2   16.5   16.5   18.7  1024.7  0.00   0.0   147     6.32    250     0.0  0.00   0.0   0.045   0.000   24.6    53    0.08   493    1     72.1   30 
25/01/23  8:30a   16.9   16.9   16.2    98   16.6   0.0   ---  0.00   0.0   ---   16.9   17.3   17.3   21.8  1024.7  0.00   0.0   305    13.12    364     0.7  0.15   1.0   0.030   0.000   24.6    53    0.00   560    1     81.9   30 
25/01/23  9:00a   18.3   18.3   16.9    97   17.8   0.0   ---  0.00   0.0   ---   18.3   19.0   19.0   23.9  1025.0  0.00   0.0   376    16.17    496     1.2  0.26   1.5   0.000   0.000   24.6    54    0.18   582    1     85.1   30 
25/01/23  9:30a   19.9   19.9   18.3    88   17.9   0.0   ---  0.00   0.0   ---   19.9   20.8   20.8   26.7  1024.9  0.00   0.0   518    22.28    564     2.0  0.43   2.4   0.000   0.034   24.5    54    0.00   596    1     87.1   30 
25/01/23 10:00a   22.3   22.3   20.0    75   17.6   0.0   ---  0.00   0.0   ---   22.3   22.8   22.8   29.0  1024.5  0.00   0.0   616    26.49    659     2.9  0.62   3.4   0.000   0.082   24.5    53    0.33   610    1     89.2   30 
25/01/23 10:30a   23.9   23.9   22.3    68   17.7   0.0   ---  0.00   0.0   ---   23.9   24.8   24.8   31.1  1024.1  0.00   0.0   707    30.40    747     3.9  0.84   4.4   0.000   0.117   24.5    53    0.00   653    1     95.5   30 
25/01/23 11:00a   25.6   25.6   23.9    60   17.3   0.0   ---  0.00   0.0   ---   25.6   26.1   26.1   32.5  1023.8  0.00   0.0   789    33.93    823     4.9  1.05   5.4   0.000   0.152   24.4    55    0.46   677    1     99.0   30 
25/01/23 11:30a   27.4   27.6   25.6    49   15.7   0.0   ---  0.00   0.0   ---   27.4   27.5   27.5   33.7  1023.3  0.00   0.0   860    36.98    891     6.0  1.29   6.5   0.000   0.189   24.2    58    0.00   693    1    100.0   30 
25/01/23 12:00p   28.3   28.3   27.3    44   14.9   0.0   ---  0.00   0.0   ---   28.3   28.4   28.4   33.8  1022.9  0.00   0.0   939    40.38   1072     7.0  1.50   7.7   0.000   0.207   24.4    54    0.58   694    1    100.0   30 
25/01/23 12:30p   28.1   28.6   28.0    45   15.0   0.0   ---  0.00   0.0   ---   28.1   28.2   28.2   34.0  1022.7  0.00   0.0   624    26.84   1100     5.4  1.16   8.0   0.000   0.203   24.3    57    0.00   690    1    100.0   30 
25/01/23  1:00p   30.1   30.1   28.1    34   12.5   0.0   ---  0.00   0.0   ---   30.1   29.6   29.6   35.3  1022.4  0.00   0.0  1089    46.83   1192     8.2  1.76   8.8   0.000   0.244   24.3    53    0.56   694    1    100.0   30 
25/01/23  1:30p   30.0   30.3   29.6    34   12.4   0.0   ---  0.00   0.0   ---   30.0   29.5   29.5   35.9  1022.3  0.00   0.0   847    36.43   1157     7.1  1.52   9.2   0.000   0.243   24.4    56    0.00   698    1    100.0   30 
25/01/23  2:00p   31.3   31.3   29.8    32   12.6   0.0   ---  0.00   0.0   ---   31.3   30.3   30.3   36.4  1021.9  0.00   0.0   911    39.18   1204     7.7  1.65   9.3   0.000   0.270   24.4    54    0.58   697    1    100.0   30 
25/01/23  2:30p   30.9   31.4   30.6    31   11.8   0.0   ---  0.00   0.0   ---   30.9   29.8   29.8   35.9  1021.7  0.00   0.0   872    37.50   1158     7.3  1.56   8.9   0.000   0.262   24.6    53    0.00   692    1    100.0   30 
25/01/23  3:00p   31.6   31.8   30.9    30   11.9   0.0   ---  0.00   0.0   ---   31.6   30.4   30.4   36.6  1021.5  0.00   0.0   995    42.79   1127     7.3  1.56   8.5   0.000   0.275   24.6    54    0.61   672    1     98.2   30 
25/01/23  3:30p   31.2   31.7   31.0    29   11.0   0.0   ---  0.00   0.0   ---   31.2   29.8   29.8   35.0  1021.1  0.00   0.0   540    23.22   1083     5.3  1.14   7.7   0.000   0.267   24.9    52    0.00   694    1    100.0   30 
25/01/23  4:00p   31.9   31.9   31.2    29   11.6   0.0   ---  0.00   0.0   ---   31.9   30.9   30.9   36.6  1020.9  0.00   0.0   782    33.63   1023     5.4  1.16   6.7   0.000   0.282   24.9    53    0.48   696    1    100.0   30 
25/01/23  4:30p   32.2   32.9   31.9    29   11.9   0.0   ---  0.00   0.0   ---   32.2   31.4   31.4   37.2  1020.6  0.00   0.0   709    30.49    902     4.5  0.96   5.6   0.000   0.288   25.4    52    0.00   691    1    100.0   30 
25/01/23  5:00p   30.8   32.2   30.8    32   12.2   0.0   ---  0.00   0.0   ---   30.8   29.9   29.9   31.4  1020.5  0.00   0.0   159     6.84    178     2.1  0.45   2.6   0.000   0.259   25.7    51    0.30   694    1    100.0   30 
25/01/23  5:30p   31.8   31.8   30.7    33   13.6   0.0   ---  0.00   0.0   ---   31.8   31.3   31.3   36.4  1020.3  0.00   0.0   399    17.16    722     2.2  0.47   2.9   0.000   0.281   25.8    50    0.00   695    1    100.0   30 
25/01/23  6:00p   31.8   31.9   31.7    34   14.0   0.0   ---  0.00   0.0   ---   31.8   31.3   31.3   37.7  1019.9  0.00   0.0   486    20.90    578     2.0  0.43   2.5   0.000   0.280   25.8    50    0.30   686    1    100.0   30 
25/01/23  6:30p   31.8   31.8   31.7    33   13.5   0.0   ---  0.00   0.0   ---   31.8   31.2   31.2   37.2  1019.8  0.00   0.0   390    16.77    439     1.4  0.30   1.6   0.000   0.280   25.8    50    0.00   693    1    100.0   30 
25/01/23  7:00p   31.7   31.8   31.6    34   13.9   0.0   ---  0.00   0.0   ---   31.7   31.2   31.2   35.2  1019.8  0.00   0.0   243    10.45    334     0.9  0.19   1.1   0.000   0.279   25.8    50    0.23   688    1    100.0   30 
25/01/23  7:30p   31.8   31.9   31.7    33   13.6   0.0   ---  0.00   0.0   ---   31.8   31.3   31.3   33.9  1020.0  0.00   0.0   166     7.14    218     0.4  0.09   0.7   0.000   0.281   25.9    50    0.00   686    1    100.0   30 
25/01/23  8:00p   24.6   31.9   24.6    68   18.3   0.0   ---  0.00   0.0   ---   24.6   25.4   25.4   24.8  1020.8  0.00   0.0    59     2.54    134     0.0  0.00   0.0   0.000   0.130   25.8    51    0.10   663    1     96.9   30 
25/01/23  8:30p   22.7   24.5   22.7    73   17.6   0.0   ---  0.00   0.0   ---   22.7   23.4   23.4   22.3  1021.5  0.00   0.0    17     0.73     30     0.0  0.00   0.0   0.000   0.091   25.7    52    0.00   629    1     92.0   30 
25/01/23  9:00p   21.7   22.7   21.7    76   17.3   0.0   ---  0.00   0.0   ---   21.7   22.2   22.2   20.8  1022.4  0.00   0.0     0     0.00      5     0.0  0.00   0.0   0.000   0.071   25.6    52    0.00   640    1     93.6   30 
25/01/23  9:30p   20.7   21.7   20.7    73   15.7   0.0   ---  0.00   0.0   ---   20.7   21.1   21.1   19.6  1023.8  0.00   0.0     0     0.00      0     0.0  0.00   0.0   0.000   0.049   25.4    53    0.00   607    1     88.7   30 
25/01/23 10:00p   20.1   20.7   20.1    77   15.9   0.0   ---  0.00   0.0   ---   20.1   20.7   20.7   19.2  1024.9  0.00   0.0     0     0.00      0     0.0  0.00   0.0   0.000   0.036   25.1    53    0.03   659    1     96.3   30 
25/01/23 10:30p   19.6   20.1   19.6    80   16.0   0.0   ---  0.00   0.0   ---   19.6   20.2   20.2   18.7  1025.3  0.00   0.0     0     0.00      0     0.0  0.00   0.0   0.000   0.025   24.8    54    0.00   657    1     96.1   30 
25/01/23 11:00p   19.4   19.6   19.4    80   15.8   0.0   ---  0.00   0.0   ---   19.4   20.0   20.0   18.5  1025.4  0.00   0.0     0     0.00      0     0.0  0.00   0.0   0.000   0.022   24.3    53    0.03   668    1     97.7   30 
25/01/23 11:30p   19.4   19.4   19.4    80   15.8   0.0   ---  0.00   0.0   ---   19.4   20.0   20.0   18.5  1025.5  0.00   0.0     0     0.00      0     0.0  0.00   0.0   0.000   0.022   24.5    54    0.00   670    1     98.0   30 
26/01/23 12:00a   19.3   19.4   19.3    80   15.7   0.0   ---  0.00   0.0   ---   19.3   19.8   19.8   18.3  1025.3  0.00   0.0     0     0.00      0     0.0  0.00   0.0   0.000   0.020   24.6    54    0.03   656    1     95.9   30 
26/01/23 12:30a   19.2   19.3   19.2    80   15.7   0.0   ---  0.00   0.0   ---   19.2   19.8   19.8   18.3  1025.4  0.00   0.0     0     0.00      0     0.0  0.00   0.0   0.000   0.019   24.1    56    0.00   656    1     95.9   30 
26/01/23  1:00a   19.2   19.2   19.2    80   15.6   0.0   ---  0.00   0.0   ---   19.2   19.7   19.7   18.2  1025.4  0.00   0.0     0     0.00      0     0.0  0.00   0.0   0.000   0.017   24.4    55    0.03   640    1     93.6   30 
26/01/23  1:30a   19.0   19.2   19.0    80   15.5   0.0   ---  0.00   0.0   ---   19.0   19.5   19.5   18.0  1025.3  0.00   0.0     0     0.00      0     0.0  0.00   0.0   0.000   0.014   24.5    55    0.00   659    1     96.3   30 
26/01/23  2:00a   18.8   19.0   18.8    81   15.4   0.0   ---  0.00   0.0   ---   18.8   19.3   19.3   17.8  1025.2  0.00   0.0     0     0.00      0     0.0  0.00   0.0   0.000   0.009   24.5    55    0.03   649    1     94.9   30 
26/01/23  2:30a   18.3   18.8   18.3    83   15.3   0.0   ---  0.00   0.0   ---   18.3   18.7   18.7   17.2  1025.0  0.00   0.0     0     0.00      0     0.0  0.00   0.0   0.001   0.000   24.6    55    0.00   654    1     95.6   30 
26/01/23  3:00a   18.0   18.3   18.0    82   14.9   0.0   ---  0.00   0.0   ---   18.0   18.3   18.3   16.8  1024.9  0.00   0.0     0     0.00      0     0.0  0.00   0.0   0.007   0.000   24.7    54    0.03   665    1     97.2   30 
26/01/23  3:30a   17.4   18.0   17.4    75   13.0   0.0   ---  0.00   0.0   ---   17.4   17.4   17.4   15.8  1025.2  0.00   0.0     0     0.00      0     0.0  0.00   0.0   0.019   0.000   24.7    54    0.00   661    1     96.6   30 
26/01/23  4:00a   17.0   17.4   17.0    75   12.5   0.0   ---  0.00   0.0   ---   17.0   16.9   16.9   15.3  1025.4  0.00   0.0     0     0.00      0     0.0  0.00   0.0   0.028   0.000   24.7    52    0.03   647    1     94.6   30 
26/01/23  4:30a   16.8   17.1   16.8    74   12.2   0.0   ---  0.00   0.0   ---   16.8   16.7   16.7   15.1  1025.7  0.00   0.0     0     0.00      0     0.0  0.00   0.0   0.031   0.000   24.6    51    0.00   653    1     95.5   30 
26/01/23  5:00a   16.7   16.8   16.7    75   12.3   0.0   ---  0.00   0.0   ---   16.7   16.6   16.6   14.9  1026.0  0.00   0.0     0     0.00      0     0.0  0.00   0.0   0.034   0.000   24.5    52    0.03   666    1     97.4   30 
26/01/23  5:30a   16.5   16.7   16.5    76   12.3   0.0   ---  0.00   0.0   ---   16.5   16.4   16.4   14.7  1026.3  0.00   0.0     0     0.00      0     0.0  0.00   0.0   0.038   0.000   24.5    51    0.00   660    1     96.5   30 
26/01/23  6:00a   16.2   16.5   16.2    78   12.4   0.0   ---  0.00   0.0   ---   16.2   16.2   16.2   14.5  1026.5  0.00   0.0     0     0.00      0     0.0  0.00   0.0   0.044   0.000   24.6    51    0.03   652    1     95.3   30 
26/01/23  6:30a   15.9   16.2   15.9    80   12.4   0.0   ---  0.00   0.0   ---   15.9   15.9   15.9   14.3  1026.8  0.00   0.0     4     0.17     14     0.0  0.00   0.0   0.051   0.000   24.6    51    0.00   654    1     95.6   30 
26/01/23  7:00a   15.9   15.9   15.7    81   12.7   0.0   ---  0.00   0.0   ---   15.9   15.9   15.9   16.1  1027.0  0.00   0.0    46     1.98     83     0.0  0.00   0.0   0.050   0.000   24.6    51    0.03   656    1     95.9   30 
26/01/23  7:30a   16.9   16.9   15.9    78   13.0   0.0   ---  0.00   0.0   ---   16.9   16.9   16.9   18.4  1027.4  0.00   0.0   108     4.64    156     0.0  0.00   0.0   0.030   0.000   24.6    50    0.00   658    1     96.2   30 
26/01/23  8:00a   17.7   17.7   16.9    76   13.4   0.0   ---  0.00   0.0   ---   17.7   17.8   17.8   20.8  1027.7  0.00   0.0   190     8.17    283     0.1  0.02   0.5   0.013   0.000   24.6    51    0.08   631    1     92.3   30 
26/01/23  8:30a   18.2   18.2   17.7    75   13.7   0.0   ---  0.00   0.0   ---   18.2   18.3   18.3   21.2  1027.8  0.00   0.0   210     9.03    417     0.6  0.13   1.0   0.003   0.000   24.5    51    0.00   618    1     90.4   30 
26/01/23  9:00a   18.6   19.1   18.2    72   13.4   0.0   ---  0.00   0.0   ---   18.6   18.7   18.7   22.2  1028.1  0.00   0.0   280    12.04    527     1.0  0.21   1.4   0.000   0.005   24.6    51    0.00   637    1     93.1   30 
26/01/23  9:30a   18.5   18.6   18.3    73   13.6   0.0   ---  0.00   0.0   ---   18.5   18.6   18.6   21.3  1028.1  0.00   0.0   245    10.54    295     1.2  0.26   1.7   0.000   0.003   24.6    50    0.15   644    1     94.2   30 
26/01/23 10:00a   18.3   18.8   18.3    74   13.6   0.0   ---  0.00   0.0   ---   18.3   18.4   18.4   19.3  1028.2  0.00   0.0   129     5.55    290     0.7  0.15   2.1   0.001   0.000   24.6    51    0.13   647    1     94.6   30 
26/01/23 10:30a   17.7   18.3   17.6    83   14.8   0.0   ---  0.00   0.0   ---   17.7   18.0   18.0   18.7  1028.4  0.00   0.0   123     5.29    258     0.7  0.15   1.8   0.013   0.000   24.7    51    0.00   662    1     96.8   30 
26/01/23 11:00a   19.2   19.2   17.7    76   14.8   0.0   ---  0.00   0.0   ---   19.2   19.6   19.6   22.7  1028.4  0.00   0.0   317    13.63    643     2.4  0.51   4.0   0.000   0.017   24.6    51    0.13   652    1     95.3   30 
26/01/23 11:30a   20.4   20.5   19.2    67   14.1   0.0   ---  0.00   0.0   ---   20.4   20.5   20.5   26.7  1028.2  0.00   0.0   717    30.84    951     5.2  1.11   6.6   0.000   0.043   24.5    50    0.00   664    1     97.1   30 
26/01/23 12:00p   21.6   21.6   20.3    65   14.7   0.0   ---  0.00   0.0   ---   21.6   21.5   21.5   27.2  1027.9  0.00   0.0   929    39.95   1194     6.8  1.46   8.0   0.000   0.067   24.5    52    0.46   675    1     98.7   30 
26/01/23 12:30p   21.2   21.6   21.2    63   13.8   0.0   ---  0.00   0.0   ---   21.2   20.9   20.9   25.2  1027.9  0.00   0.0   437    18.79   1315     4.6  0.99   8.3   0.000   0.059   24.6    51    0.00   689    1    100.0   30 
26/01/23  1:00p   22.3   22.3   20.9    59   13.9   0.0   ---  0.00   0.0   ---   22.3   22.2   22.2   27.9  1027.9  0.00   0.0  1066    45.84   1310     8.0  1.71   9.5   0.000   0.082   24.4    51    0.46   680    1     99.4   30 
26/01/23  1:30p   22.5   22.7   21.7    56   13.3   0.0   ---  0.00   0.0   ---   22.5   22.4   22.4   28.6  1027.9  0.00   0.0   704    30.28   1248     6.7  1.44   9.6   0.000   0.087   24.2    52    0.00   688    1    100.0   30 
26/01/23  2:00p   22.9   23.1   22.1    53   12.8   0.0   ---  0.00   0.0   ---   22.9   22.8   22.8   28.4  1027.8  0.00   0.0   611    26.28   1238     6.8  1.46   9.3   0.000   0.095   24.4    52    0.46   688    1    100.0   30 
26/01/23  2:30p   23.4   23.4   22.8    51   12.7   0.0   ---  0.00   0.0   ---   23.4   23.3   23.3   29.7  1027.9  0.00   0.0  1082    46.53   1230     8.6  1.84   9.3   0.000   0.105   24.4    50    0.00   690    1    100.0   30 
26/01/23  3:00p   22.9   23.4   22.7    50   11.9   0.0   ---  0.00   0.0   ---   22.9   22.6   22.6   28.5  1028.1  0.00   0.0   957    41.16   1141     7.1  1.52   8.5   0.000   0.095   24.4    49    0.61   697    1    100.0   30 
26/01/23  3:30p   23.6   23.9   22.8    47   11.6   0.0   ---  0.00   0.0   ---   23.6   23.4   23.4   29.4  1028.0  0.00   0.0   908    39.05   1078     6.7  1.44   7.6   0.000   0.109   24.2    51    0.00   691    1    100.0   30 
26/01/23  4:00p   22.6   23.5   22.3    50   11.7   0.0   ---  0.00   0.0   ---   22.6   22.3   22.3   27.9  1027.9  0.00   0.0   590    25.37    983     4.5  0.96   6.8   0.000   0.089   24.4    50    0.46   689    1    100.0   30 
26/01/23  4:30p   23.0   23.3   22.6    47   11.1   0.0   ---  0.00   0.0   ---   23.0   22.7   22.7   29.1  1027.8  0.00   0.0   769    33.07    870     4.6  0.99   5.4   0.000   0.097   24.1    50    0.00   694    1    100.0   30 
26/01/23  5:00p   22.9   23.5   22.8    48   11.3   0.0   ---  0.00   0.0   ---   22.9   22.6   22.6   29.3  1027.9  0.00   0.0   699    30.06    777     3.7  0.79   4.3   0.000   0.095   24.0    50    0.43   691    1    100.0   30 
26/01/23  5:30p   22.9   23.1   22.8    49   11.7   0.0   ---  0.00   0.0   ---   22.9   22.7   22.7   29.3  1028.1  0.00   0.0   596    25.63    640     2.8  0.60   3.2   0.000   0.096   24.4    49    0.00   692    1    100.0   30 
26/01/23  6:00p   22.7   22.9   22.4    49   11.5   0.0   ---  0.00   0.0   ---   22.7   22.4   22.4   28.8  1028.0  0.00   0.0   492    21.16    541     1.9  0.41   2.3   0.000   0.091   24.3    49    0.33   687    1    100.0   30 
26/01/23  6:30p   22.2   22.7   22.2    52   11.8   0.0   ---  0.00   0.0   ---   22.2   21.7   21.7   27.7  1028.2  0.00   0.0   391    16.82    443     1.2  0.26   1.6   0.000   0.080   24.1    49    0.00   697    1    100.0   30 
26/01/23  7:00p   21.7   22.2   21.7    53   11.7   0.0   ---  0.00   0.0   ---   21.7   21.1   21.1   26.1  1028.4  0.00   0.0   291    12.51    348     0.7  0.15   1.0   0.000   0.071   24.1    49    0.20   660    1     96.5   30 
26/01/23  7:30p   20.9   21.7   20.9    54   11.3   0.0   ---  0.00   0.0   ---   20.9   20.2   20.2   20.7  1028.7  0.00   0.0   180     7.74    244     0.1  0.02   0.5   0.000   0.054   24.3    49    0.00   662    1     96.8   30 
26/01/23  8:00p   19.8   20.9   19.8    56   10.8   0.0   ---  0.00   0.0   ---   19.8   19.4   19.4   18.3  1029.1  0.00   0.0    52     2.24    113     0.0  0.00   0.0   0.000   0.031   24.4    47    0.08   680    1     99.4   30 
26/01/23  8:30p   18.9   19.8   18.9    60   11.0   0.0   ---  0.00   0.0   ---   18.9   18.5   18.5   16.9  1029.3  0.00   0.0    15     0.65     25     0.0  0.00   0.0   0.000   0.012   24.6    48    0.00   682    1     99.7   30 
26/01/23  9:00p   18.2   18.9   18.2    61   10.5   0.0   ---  0.00   0.0   ---   18.2   17.8   17.8   16.0  1029.5  0.00   0.0     0     0.00      5     0.0  0.00   0.0   0.003   0.000   24.6    46    0.03   689    1    100.0   30 
26/01/23  9:30p   17.6   18.2   17.6    63   10.4   0.0   ---  0.00   0.0   ---   17.6   17.2   17.2   15.4  1029.9  0.00   0.0     0     0.00      0     0.0  0.00   0.0   0.016   0.000   24.5    47    0.00   686    1    100.0   30 
26/01/23 10:00p   17.1   17.6   17.1    65   10.4   0.0   ---  0.00   0.0   ---   17.1   16.7   16.7   14.9  1030.2  0.00   0.0     0     0.00      0     0.0  0.00   0.0   0.027   0.000   24.7    45    0.03   683    1     99.9   30 
26/01/23 10:30p   16.6   17.1   16.6    66   10.2   0.0   ---  0.00   0.0   ---   16.6   16.2   16.2   14.4  1030.2  0.00   0.0     0     0.00      0     0.0  0.00   0.0   0.036   0.000   24.7    46    0.00   685    1    100.0   30 
26/01/23 11:00p   16.2   16.6   16.2    68   10.3   0.0   ---  0.00   0.0   ---   16.2   15.8   15.8   14.0  1030.1  0.00   0.0     0     0.00      0     0.0  0.00   0.0   0.045   0.000   24.7    46    0.03   671    1     98.1   30 
26/01/23 11:30p   15.8   16.2   15.8    69   10.1   0.0   ---  0.00   0.0   ---   15.8   15.4   15.4   13.6  1030.0  0.00   0.0     0     0.00      0     0.0  0.00   0.0   0.053   0.000   24.8    45    0.00   676    1     98.8   30 
27/01/23 12:00a   15.3   15.8   15.3    70    9.9   0.0   ---  0.00   0.0   ---   15.3   15.0   15.0   13.2  1030.0  0.00   0.0     0     0.00      0     0.0  0.00   0.0   0.063   0.000   24.9    45    0.03   671    1     98.1   30 
27/01/23 12:30a   15.2   15.3   15.2    71    9.9   0.0   ---  0.00   0.0   ---   15.2   14.8   14.8   13.1  1029.7  0.00   0.0     0     0.00      0     0.0  0.00   0.0   0.066   0.000   24.8    45    0.00   666    1     97.4   30 
27/01/23  1:00a   14.8   15.2   14.8    73   10.0   0.0   ---  0.00   0.0   ---   14.8   14.4   14.4   12.7  1029.7  0.00   0.0     0     0.00      0     0.0  0.00   0.0   0.074   0.000   24.7    45    0.03   655    1     95.8   30 
27/01/23  1:30a   14.5   14.8   14.5    73    9.7   0.0   ---  0.00   0.0   ---   14.5   14.2   14.2   12.4  1029.4  0.00   0.0     0     0.00      0     0.0  0.00   0.0   0.080   0.000   24.9    44    0.00   662    1     96.8   30 
27/01/23  2:00a   14.3   14.5   14.2    74    9.7   0.0   ---  0.00   0.0   ---   14.3   13.9   13.9   12.2  1029.1  0.00   0.0     0     0.00      0     0.0  0.00   0.0   0.084   0.000   24.8    44    0.03   666    1     97.4   30 
27/01/23  2:30a   14.0   14.2   14.0    74    9.4   0.0   ---  0.00   0.0   ---   14.0   13.7   13.7   11.8  1028.9  0.00   0.0     0     0.00      0     0.0  0.00   0.0   0.090   0.000   24.7    44    0.00   665    1     97.2   30 
27/01/23  3:00a   13.4   14.0   13.4    75    9.1   0.0   ---  0.00   0.0   ---   13.4   13.1   13.1   11.3  1028.5  0.00   0.0     0     0.00      0     0.0  0.00   0.0   0.102   0.000   24.8    44    0.03   666    1     97.4   30 
27/01/23  3:30a   12.5   13.4   12.5    80    9.1   0.0   ---  0.00   0.0   ---   12.5   12.3   12.3   10.5  1028.1  0.00   0.0     0     0.00      0     0.0  0.00   0.0   0.122   0.000   24.8    44    0.00   670    1     98.0   30 
27/01/23  4:00a   11.9   12.5   11.9    83    9.1   0.0   ---  0.00   0.0   ---   11.9   11.8   11.8   10.0  1027.9  0.00   0.0     0     0.00      0     0.0  0.00   0.0   0.133   0.000   24.8    43    0.03   665    1     97.2   30 
27/01/23  4:30a   11.4   11.9   11.4    85    9.0   0.0   ---  0.00   0.0   ---   11.4   11.4   11.4    9.6  1027.9  0.00   0.0     0     0.00      0     0.0  0.00   0.0   0.145   0.000   24.8    43    0.00   672    1     98.2   30 
27/01/23  5:00a   10.8   11.4   10.8    87    8.8   0.0   ---  0.00   0.0   ---   10.8   10.9   10.9    9.1  1028.1  0.00   0.0     0     0.00      0     0.0  0.00   0.0   0.156   0.000   24.8    43    0.00   679    1     99.3   30 
27/01/23  5:30a   10.6   10.8   10.6    89    8.9   0.0   ---  0.00   0.0   ---   10.6   10.7   10.7    8.9  1028.3  0.00   0.0     0     0.00      0     0.0  0.00   0.0   0.161   0.000   25.0    43    0.00   680    1     99.4   30 
27/01/23  6:00a   10.2   10.7   10.2    89    8.4   0.0   ---  0.00   0.0   ---   10.2   10.3   10.3    8.4  1028.6  0.00   0.0     0     0.00      0     0.0  0.00   0.0   0.170   0.000   24.9    43    0.00   684    1    100.0   30 
27/01/23  6:30a    9.8   10.2    9.8    90    8.2   0.0   ---  0.00   0.0   ---    9.8    9.9    9.9    8.1  1028.8  0.00   0.0     2     0.09      9     0.0  0.00   0.0   0.178   0.000   25.0    42    0.00   691    1    100.0   30 
27/01/23  7:00a    9.7    9.8    9.7    90    8.2   0.0   ---  0.00   0.0   ---    9.7    9.9    9.9    9.4  1028.9  0.00   0.0    26     1.12     53     0.0  0.00   0.0   0.179   0.000   24.8    42    0.00   673    1     98.4   30 
27/01/23  7:30a   10.3   10.3    9.7    89    8.6   0.0   ---  0.00   0.0   ---   10.3   10.4   10.4   11.5  1029.0  0.00   0.0    93     4.00    137     0.0  0.00   0.0   0.167   0.000   25.0    42    0.00   690    1    100.0   30 
27/01/23  8:00a   11.8   11.8   10.3    87    9.7   0.0   ---  0.00   0.0   ---   11.8   11.8   11.8   14.7  1029.2  0.00   0.0   196     8.43    251     0.0  0.00   0.5   0.137   0.000   24.8    42    0.08   672    1     98.2   30 
27/01/23  8:30a   14.3   14.3   11.8    79   10.7   0.0   ---  0.00   0.0   ---   14.3   14.1   14.1   18.3  1029.3  0.00   0.0   310    13.33    364     0.7  0.15   1.0   0.084   0.000   24.7    43    0.00   665    1     97.2   30 
27/01/23  9:00a   16.4   16.4   14.3    70   10.9   0.0   ---  0.00   0.0   ---   16.4   16.1   16.1   21.2  1029.2  0.00   0.0   419    18.02    471     1.3  0.28   1.7   0.041   0.000   24.7    43    0.18   671    1     98.1   30 
27/01/23  9:30a   17.0   17.0   16.4    68   11.0   0.0   ---  0.00   0.0   ---   17.0   16.7   16.7   22.3  1029.1  0.00   0.0   521    22.41    571     2.1  0.45   2.4   0.028   0.000   24.7    43    0.00   650    1     95.0   30 
27/01/23 10:00a   18.4   18.4   17.0    64   11.5   0.0   ---  0.00   0.0   ---   18.4   18.2   18.2   24.1  1028.9  0.00   0.0   622    26.75    668     2.9  0.62   3.4   0.000   0.002   24.6    43    0.30   685    1    100.0   30 
27/01/23 10:30a   20.0   20.1   18.4    59   11.7   0.0   ---  0.00   0.0   ---   20.0   19.8   19.8   25.8  1028.5  0.00   0.0   719    30.92    761     3.9  0.84   4.5   0.000   0.035   24.7    43    0.00   673    1     98.4   30 
27/01/23 11:00a   20.6   20.6   19.9    57   11.7   0.0   ---  0.00   0.0   ---   20.6   20.1   20.1   26.2  1028.1  0.00   0.0   801    34.45    838     5.0  1.07   5.6   0.000   0.046   24.6    44    0.43   693    1    100.0   30 
27/01/23 11:30a   21.4   21.5   20.5    54   11.7   0.0   ---  0.00   0.0   ---   21.4   20.8   20.8   26.7  1027.6  0.00   0.0   874    37.59    905     6.1  1.31   6.6   0.000   0.065   24.7    44    0.00   694    1    100.0   30 
27/01/23 12:00p   23.3   23.3   21.4    46   11.1   0.0   ---  0.00   0.0   ---   23.3   23.1   23.1   28.4  1027.4  0.00   0.0   933    40.12    960     7.1  1.52   7.5   0.000   0.104   24.7    44    0.53   670    1     98.0   30 
27/01/23 12:30p   24.2   24.3   23.3    42   10.5   0.0   ---  0.00   0.0   ---   24.2   23.8   23.8   28.9  1027.0  0.00   0.0   979    42.10    995     7.9  1.69   8.2   0.000   0.123   24.5    45    0.00   696    1    100.0   30 
27/01/23  1:00p   25.3   25.3   24.2    37    9.5   0.0   ---  0.00   0.0   ---   25.3   24.7   24.7   29.8  1026.7  0.00   0.0  1007    43.31   1016     8.5  1.82   8.7   0.000   0.145   24.5    45    0.61   697    1    100.0   30 
27/01/23  1:30p   26.3   26.5   25.3    36   10.0   0.0   ---  0.00   0.0   ---   26.3   25.6   25.6   30.8  1026.3  0.00   0.0  1019    43.82   1025     8.8  1.89   8.8   0.000   0.166   24.4    45    0.00   693    1    100.0   30 
27/01/23  2:00p   27.3   27.3   26.2    34   10.0   0.0   ---  0.00   0.0   ---   27.3   26.4   26.4   31.8  1026.0  0.00   0.0  1013    43.56   1023     8.7  1.86   8.8   0.000   0.186   24.4    44    0.63   668    1     97.7   30 
27/01/23  2:30p   27.7   27.7   27.1    33   10.0   0.0   ---  0.00   0.0   ---   27.7   26.8   26.8   32.4  1025.5  0.00   0.0   993    42.70   1005     8.4  1.80   8.6   0.000   0.196   24.5    45    0.00   697    1    100.0   30 
27/01/23  3:00p   28.4   28.4   27.7    31    9.7   0.0   ---  0.00   0.0   ---   28.4   27.4   27.4   33.3  1025.2  0.00   0.0   961    41.33    981     7.8  1.67   8.2   0.000   0.211   24.5    44    0.63   689    1    100.0   30 
27/01/23  3:30p   29.1   29.1   28.4    27    8.2   0.0   ---  0.00   0.0   ---   29.1   27.8   27.8   33.8  1024.8  0.00   0.0   914    39.31    935     7.0  1.50   7.4   0.000   0.223   24.7    44    0.00   653    1     95.5   30 
27/01/23  4:00p   29.9   30.0   29.1    23    6.5   0.0   ---  0.00   0.0   ---   29.9   28.3   28.3   34.5  1024.3  0.00   0.0   856    36.81    886     6.1  1.31   6.5   0.000   0.241   24.7    44    0.58   685    1    100.0   30 
27/01/23  4:30p   31.0   31.0   29.8    20    5.4   0.0   ---  0.00   0.0   ---   31.0   29.1   29.1   35.3  1023.6  0.00   0.0   782    33.63    824     5.1  1.09   5.6   0.000   0.264   25.0    44    0.00   692    1    100.0   30 
27/01/23  5:00p   31.1   31.3   30.7    20    5.5   0.0   ---  0.00   0.0   ---   31.1   29.1   29.1   35.5  1023.3  0.00   0.0   696    29.93    740     4.0  0.86   4.5   0.000   0.265   25.1    43    0.51   698    1    100.0   30 
27/01/23  5:30p   31.1   31.2   31.0    19    4.7   0.0   ---  0.00   0.0   ---   31.1   29.1   29.1   35.5  1022.9  0.00   0.0   601    25.85    649     3.0  0.64   3.4   0.000   0.265   25.2    42    0.00   683    1     99.9   30 
27/01/23  6:00p   31.1   31.2   30.8    19    4.7   0.0   ---  0.00   0.0   ---   31.1   29.1   29.1   35.3  1022.7  0.00   0.0   499    21.46    548     2.1  0.45   2.5   0.000   0.265   25.4    42    0.38   691    1    100.0   30 
27/01/23  6:30p   31.0   31.1   30.7    20    5.4   0.0   ---  0.00   0.0   ---   31.0   29.1   29.1   34.8  1022.5  0.00   0.0   395    16.99    446     1.4  0.30   1.7   0.000   0.264   25.5    41    0.00   689    1    100.0   30 
27/01/23  7:00p   30.8   31.0   30.8    21    6.0   0.0   ---  0.00   0.0   ---   30.8   29.0   29.0   33.7  1022.5  0.00   0.0   290    12.47    339     0.9  0.19   1.1   0.000   0.260   25.5    41    0.25   681    1     99.6   30 
27/01/23  7:30p   30.4   30.8   30.4    25    8.1   0.0   ---  0.00   0.0   ---   30.4   28.9   28.9   29.1  1022.7  0.00   0.0   174     7.48    234     0.5  0.11   0.7   0.000   0.251   25.5    40    0.00   667    1     97.5   30 
27/01/23  8:00p   28.4   30.4   28.4    31    9.6   0.0   ---  0.00   0.0   ---   28.4   27.4   27.4   26.2  1022.7  0.00   0.0    47     2.02    113     0.0  0.00   0.0   0.000   0.209   25.4    41    0.10   677    1     99.0   30 
27/01/23  8:30p   26.6   28.4   26.6    41   12.3   0.0   ---  0.00   0.0   ---   26.6   26.1   26.1   24.6  1022.6  0.00   0.0    13     0.56     21     0.0  0.00   0.0   0.000   0.172   25.2    41    0.00   664    1     97.1   30 
27/01/23  9:00p   24.2   26.6   24.2    49   12.8   0.0   ---  0.00   0.0   ---   24.2   24.2   24.2   22.5  1022.6  0.00   0.0     0     0.00      5     0.0  0.00   0.0   0.000   0.122   25.2    42    0.03   680    1     99.4   30 
27/01/23  9:30p   22.2   24.2   22.2    57   13.2   0.0   ---  0.00   0.0   ---   22.2   21.9   21.9   20.3  1022.9  0.00   0.0     0     0.00      0     0.0  0.00   0.0   0.000   0.080   25.1    42    0.00   682    1     99.7   30 
27/01/23 10:00p   20.6   22.2   20.6    62   13.0   0.0   ---  0.00   0.0   ---   20.6   20.3   20.3   18.7  1022.9  0.00   0.0     0     0.00      0     0.0  0.00   0.0   0.000   0.046   24.6    43    0.05   662    1     96.8   30 
27/01/23 10:30p   19.4   20.6   19.4    68   13.4   0.0   ---  0.00   0.0   ---   19.4   19.6   19.6   17.9  1022.9  0.00   0.0     0     0.00      0     0.0  0.00   0.0   0.000   0.023   24.5    44    0.00   675    1     98.7   30 
27/01/23 11:00p   19.1   19.4   19.1    69   13.2   0.0   ---  0.00   0.0   ---   19.1   19.2   19.2   17.6  1022.8  0.00   0.0     0     0.00      0     0.0  0.00   0.0   0.000   0.015   24.5    44    0.03   659    1     96.3   30 
27/01/23 11:30p   18.6   19.1   18.6    72   13.5   0.0   ---  0.00   0.0   ---   18.6   18.7   18.7   17.1  1022.3  0.00   0.0     0     0.00      0     0.0  0.00   0.0   0.000   0.006   24.6    44    0.00   650    1     95.0   30 
28/01/23 12:00a   18.2   18.6   18.2    69   12.4   0.0   ---  0.00   0.0   ---   18.2   18.2   18.2   16.5  1022.3  0.00   0.0     0     0.00      0     0.0  0.00   0.0   0.002   0.000   24.6    44    0.03   667    1     97.5   30 
28/01/23 12:30a   17.8   18.2   17.7    69   12.0   0.0   ---  0.00   0.0   ---   17.8   17.6   17.6   15.9  1022.2  0.00   0.0     0     0.00      0     0.0  0.00   0.0   0.012   0.000   24.7    44    0.00   664    1     97.1   30 
28/01/23  1:00a   16.9   17.7   16.9    72   11.9   0.0   ---  0.00   0.0   ---   16.9   16.8   16.8   15.1  1022.0  0.00   0.0     0     0.00      0     0.0  0.00   0.0   0.029   0.000   24.7    44    0.03   667    1     97.5   30 
28/01/23  1:30a   15.9   16.9   15.9    75   11.5   0.0   ---  0.00   0.0   ---   15.9   15.7   15.7   14.0  1021.7  0.00   0.0     0     0.00      0     0.0  0.00   0.0   0.051   0.000   24.8    43    0.00   666    1     97.4   30 
28/01/23  2:00a   15.4   15.9   15.4    75   11.0   0.0   ---  0.00   0.0   ---   15.4   15.2   15.2   13.5  1021.6  0.00   0.0     0     0.00      0     0.0  0.00   0.0   0.060   0.000   24.9    43    0.03   663    1     96.9   30 
28/01/23  2:30a   14.6   15.4   14.6    79   11.0   0.0   ---  0.00   0.0   ---   14.6   14.4   14.4   12.7  1021.5  0.00   0.0     0     0.00      0     0.0  0.00   0.0   0.078   0.000   24.9    43    0.00   663    1     96.9   30 
28/01/23  3:00a   14.1   14.6   14.0    80   10.7   0.0   ---  0.00   0.0   ---   14.1   13.9   13.9   12.2  1021.3  0.00   0.0     0     0.00      0     0.0  0.00   0.0   0.089   0.000   24.8    43    0.00   671    1     98.1   30 
28/01/23  3:30a   13.8   14.1   13.8    80   10.4   0.0   ---  0.00   0.0   ---   13.8   13.7   13.7   11.9  1020.9  0.00   0.0     0     0.00      0     0.0  0.00   0.0   0.094   0.000   24.8    43    0.03   667    1     97.5   30 
28/01/23  4:00a   13.3   13.9   13.3    81   10.1   0.0   ---  0.00   0.0   ---   13.3   13.1   13.1   11.3  1020.7  0.00   0.0     0     0.00      0     0.0  0.00   0.0   0.105   0.000   25.0    42    0.03   666    1     97.4   30 
28/01/23  4:30a   13.1   13.3   13.1    81    9.9   0.0   ---  0.00   0.0   ---   13.1   12.9   12.9   11.1  1020.3  0.00   0.0     0     0.00      0     0.0  0.00   0.0   0.110   0.000   24.9    42    0.00   675    1     98.7   30 
28/01/23  5:00a   12.6   13.1   12.6    82    9.6   0.0   ---  0.00   0.0   ---   12.6   12.5   12.5   10.7  1019.8  0.00   0.0     0     0.00      0     0.0  0.00   0.0   0.119   0.000   25.0    42    0.03   670    1     98.0   30 
28/01/23  5:30a   11.9   12.6   11.9    85    9.4   0.0   ---  0.00   0.0   ---   11.9   11.8   11.8   10.1  1020.1  0.00   0.0     0     0.00      0     0.0  0.00   0.0   0.134   0.000   25.0    41    0.00   671    1     98.1   30 
28/01/23  6:00a   11.3   11.9   11.3    87    9.2   0.0   ---  0.00   0.0   ---   11.3   11.3   11.3    9.5  1020.3  0.00   0.0     0     0.00      0     0.0  0.00   0.0   0.146   0.000   24.8    42    0.00   650    1     95.0   30 
28/01/23  6:30a   11.1   11.3   11.1    89    9.4   0.0   ---  0.00   0.0   ---   11.1   11.2   11.2    9.4  1020.3  0.00   0.0     2     0.09      9     0.0  0.00   0.0   0.150   0.000   24.8    42    0.00   676    1     98.8   30 
28/01/23  7:00a   11.3   11.3   11.0    91    9.9   0.0   ---  0.00   0.0   ---   11.3   11.4   11.4   10.9  1020.5  0.00   0.0    24     1.03     53     0.0  0.00   0.0   0.146   0.000   24.8    41    0.00   684    1    100.0   30 
28/01/23  7:30a   13.2   13.2   11.3    88   11.3   0.0   ---  0.00   0.0   ---   13.2   13.2   13.2   14.4  1020.2  0.00   0.0    96     4.13    148     0.0  0.00   0.0   0.106   0.000   24.7    42    0.00   682    1     99.7   30 
28/01/23  8:00a   20.6   20.6   13.2    48    9.2   0.0   ---  0.00   0.0   ---   20.6   19.7   19.7   22.8  1020.1  0.00   0.0   209     8.99    274     0.2  0.04   0.6   0.000   0.047   24.8    41    0.08   660    1     96.5   30 
28/01/23  8:30a   24.3   24.3   20.6    37    8.7   0.0   ---  0.00   0.0   ---   24.3   23.7   23.7   28.1  1020.4  0.00   0.0   333    14.32    392     0.9  0.19   1.1   0.000   0.124   24.7    42    0.00   670    1     98.0   30 
28/01/23  9:00a   26.8   26.8   24.3    34    9.6   0.0   ---  0.00   0.0   ---   26.8   25.9   25.9   30.9  1020.6  0.00   0.0   422    18.15    596     1.4  0.30   1.9   0.000   0.176   24.6    42    0.25   685    1    100.0   30 
28/01/23  9:30a   27.2   27.2   26.8    40   12.4   0.0   ---  0.00   0.0   ---   27.2   26.7   26.7   31.4  1020.5  0.00   0.0   418    17.98    555     1.9  0.41   2.2   0.000   0.185   24.5    42    0.00   677    1     99.0   30 
28/01/23 10:00a   27.9   27.9   27.2    44   14.6   0.0   ---  0.00   0.0   ---   27.9   27.9   27.9   33.5  1020.5  0.00   0.0   541    23.27    657     2.8  0.60   3.2   0.000   0.200   24.5    43    0.33   680    1     99.4   30 
28/01/23 10:30a   28.4   28.4   27.8    46   15.7   0.0   ---  0.00   0.0   ---   28.4   28.8   28.8   34.2  1020.3  0.00   0.0   530    22.79    610     3.2  0.69   3.6   0.000   0.209   24.3    44    0.00   692    1    100.0   30 
28/01/23 11:00a   28.9   28.9   28.4    47   16.4   0.0   ---  0.00   0.0   ---   28.9   29.7   29.7   34.8  1021.0  0.00   0.0   516    22.19    700     3.6  0.77   4.3   0.000   0.220   24.3    45    0.36   683    1     99.9   30 
28/01/23 11:30a   30.4   30.4   28.9    41   15.7   0.0   ---  0.00   0.0   ---   30.4   30.7   30.7   36.5  1020.6  0.00   0.0   609    26.19    886     4.6  0.99   5.9   0.000   0.251   24.2    46    0.00   674    1     98.5   30 
28/01/23 12:00p   31.3   31.3   30.4    37   14.9   0.0   ---  0.00   0.0   ---   31.3   31.1   31.1   36.0  1020.7  0.00   0.0   496    21.33    824     4.5  0.96   7.6   0.000   0.271   24.2    46    0.41   683    1     99.9   30 
28/01/23 12:30p   33.0   33.0   31.3    30   13.1   0.0   ---  0.00   0.0   ---   33.0   32.6   32.6   39.0  1020.2  0.00   0.0   862    37.07   1111     7.0  1.50   8.7   0.000   0.306   24.3    47    0.00   685    1    100.0   30 
28/01/23  1:00p   33.6   33.6   33.0    27   12.0   0.0   ---  0.00   0.0   ---   33.6   32.8   32.8   39.0  1019.6  0.00   0.0   906    38.96   1027     7.8  1.67   8.5   0.000   0.318   24.5    46    0.61   698    1    100.0   30 
28/01/23  1:30p   33.6   33.7   33.3    26   11.5   0.0   ---  0.00   0.0   ---   33.6   32.6   32.6   38.4  1019.4  0.00   0.0   646    27.78    888     5.8  1.24   7.6   0.000   0.318   24.8    46    0.00   695    1    100.0   30 
28/01/23  2:00p   33.2   33.6   33.1    27   11.7   0.0   ---  0.00   0.0   ---   33.2   32.3   32.3   36.9  1019.4  0.00   0.0   480    20.64    608     4.3  0.92   5.1   0.000   0.309   25.1    45    0.41   695    1    100.0   30 
28/01/23  2:30p   33.8   33.8   33.1    27   12.2   0.0   ---  0.00   0.0   ---   33.8   33.1   33.1   38.4  1019.5  0.00   0.0   560    24.08    779     4.8  1.03   6.3   0.000   0.323   25.3    45    0.00   689    1    100.0   30 
28/01/23  3:00p   35.1   35.1   33.8    23   10.8   0.0   ---  0.00   0.0   ---   35.1   33.9   33.9   39.4  1019.1  0.00   0.0   604    25.98    766     5.0  1.07   6.0   0.000   0.348   25.4    45    0.00   688    1    100.0   30 
28/01/23  3:30p   35.1   35.5   35.0    22   10.2   0.0   ---  0.00   0.0   ---   35.1   33.8   33.8   38.2  1018.9  0.00   0.0   449    19.31    519     3.7  0.79   4.2   0.000   0.350   25.6    44    0.43   693    1    100.0   30 
28/01/23  4:00p   35.0   35.2   35.0    23   10.8   0.0   ---  0.00   0.0   ---   35.0   33.8   33.8   37.5  1018.9  0.00   0.0   358    15.40    401     2.9  0.62   3.2   0.000   0.347   25.7    44    0.30   693    1    100.0   30 
28/01/23  4:30p   34.4   35.0   34.4    25   11.6   0.0   ---  0.00   0.0   ---   34.4   33.5   33.5   36.8  1018.7  0.00   0.0   304    13.07    327     2.3  0.49   2.5   0.000   0.336   25.7    44    0.00   686    1    100.0   30 
28/01/23  5:00p   32.3   34.4   32.3    27   10.9   0.0   ---  0.00   0.0   ---   32.3   31.3   31.3   33.7  1018.9  0.00   0.0   226     9.72    269     1.6  0.34   2.0   0.000   0.292   25.8    44    0.00   669    1     97.8   30 
28/01/23  5:30p   29.8   32.3   29.8    33   11.8   0.0   ---  0.00   0.0   ---   29.8   29.2   29.2   30.9  1019.3  0.00   0.0   158     6.79    178     1.0  0.21   1.2   0.000   0.240   25.7    43    0.20   697    1    100.0   30 
28/01/23  6:00p   28.6   29.8   28.6    36   12.1   0.0   ---  0.00   0.0   ---   28.6   28.2   28.2   29.3  1019.6  0.00   0.0   111     4.77    149     0.5  0.11   0.9   0.000   0.214   25.7    43    0.00   685    1    100.0   30 
28/01/23  6:30p   26.8   28.6   26.8    49   15.2   0.0   ---  0.00   0.0   ---   26.8   26.8   26.8   27.9  1019.6  0.00   0.0    93     4.00    105     0.1  0.02   0.5   0.000   0.176   25.6    44    0.10   682    1     99.7   30 
28/01/23  7:00p   26.1   26.8   26.1    55   16.4   0.0   ---  0.00   0.0   ---   26.1   26.4   26.4   27.8  1020.1  0.00   0.0    91     3.91    104     0.0  0.00   0.0   0.000   0.162   25.5    45    0.08   676    1     98.8   30 
28/01/23  7:30p   24.4   26.1   24.4    65   17.4   0.0   ---  0.00   0.0   ---   24.4   25.1   25.1   24.6  1020.2  0.00   0.0    59     2.54     84     0.0  0.00   0.0   0.000   0.126   25.3    46    0.00   663    1     96.9   30 
28/01/23  8:00p   23.1   24.4   23.1    73   18.0   0.0   ---  0.00   0.0   ---   23.1   23.9   23.9   23.1  1020.8  0.00   0.0    24     1.03     28     0.0  0.00   0.0   0.000   0.098   25.5    47    0.03   679    1     99.3   30 
28/01/23  8:30p   21.9   23.0   21.9    78   17.9   0.0   ---  0.00   0.0   ---   21.9   22.6   22.6   21.6  1021.4  0.00   0.0     7     0.30     16     0.0  0.00   0.0   0.000   0.075   25.4    47    0.00   672    1     98.2   30 
28/01/23  9:00p   21.5   21.9   21.5    80   17.9   0.0   ---  0.00   0.0   ---   21.5   22.2   22.2   21.0  1021.8  0.00   0.0     0     0.00      0     0.0  0.00   0.0   0.000   0.066   25.3    48    0.00   669    1     97.8   30 
28/01/23  9:30p   21.4   21.5   21.4    80   17.8   0.0   ---  0.00   0.0   ---   21.4   22.1   22.1   20.9  1021.5  0.00   0.0     0     0.00      0     0.0  0.00   0.0   0.000   0.065   25.2    48    0.00   655    1     95.8   30 
28/01/23 10:00p   21.6   21.6   21.4    79   17.8   0.0   ---  0.00   0.0   ---   21.6   22.2   22.2   21.1  1022.8  0.00   0.0     0     0.00      0     0.0  0.00   0.0   0.000   0.067   24.7    50    0.03   655    1     95.8   30 
28/01/23 10:30p   21.5   21.6   21.5    80   17.9   0.0   ---  0.00   0.0   ---   21.5   22.2   22.2   21.0  1022.8  0.00   0.0     0     0.00      0     0.0  0.00   0.0   0.000   0.066   24.5    49    0.00   659    1     96.3   30 
28/01/23 11:00p   21.3   21.5   21.3    81   17.9   0.0   ---  0.00   0.0   ---   21.3   21.9   21.9   20.8  1022.7  0.00   0.0     0     0.00      0     0.0  0.00   0.0   0.000   0.061   24.4    49    0.03   654    1     95.6   30 
28/01/23 11:30p   21.1   21.3   21.1    82   17.9   0.0   ---  0.00   0.0   ---   21.1   21.8   21.8   20.6  1022.5  0.00   0.0     0     0.00      0     0.0  0.00   0.0   0.000   0.057   24.5    52    0.00   646    1     94.4   30 
29/01/23 12:00a   20.8   21.1   20.8    84   18.0   0.0   ---  0.00   0.0   ---   20.8   21.7   21.7   20.6  1022.3  0.00   0.0     0     0.00      0     0.0  0.00   0.0   0.000   0.052   24.5    50    0.03   657    1     96.1   30 
29/01/23 12:30a   20.5   20.8   20.5    85   17.9   0.0   ---  0.00   0.0   ---   20.5   21.5   21.5   20.3  1022.4  0.00   0.0     0     0.00      0     0.0  0.00   0.0   0.000   0.045   24.5    50    0.00   641    1     93.7   30 
29/01/23  1:00a   20.3   20.5   20.3    86   17.9   0.0   ---  0.00   0.0   ---   20.3   21.2   21.2   20.1  1022.2  0.00   0.0     0     0.00      0     0.0  0.00   0.0   0.000   0.041   24.5    50    0.03   637    1     93.1   30 
29/01/23  1:30a   19.9   20.3   19.9    88   17.9   0.0   ---  0.00   0.0   ---   19.9   20.8   20.8   19.7  1021.9  0.00   0.0     0     0.00      0     0.0  0.00   0.0   0.000   0.034   24.4    53    0.00   635    1     92.8   30 
29/01/23  2:00a   19.7   19.9   19.7    88   17.7   0.0   ---  0.00   0.0   ---   19.7   20.6   20.6   19.4  1022.5  0.00   0.0     0     0.00      0     0.0  0.00   0.0   0.000   0.029   24.6    51    0.00   662    1     96.8   30 
29/01/23  2:30a   19.7   19.7   19.7    88   17.7   0.0   ---  0.00   0.0   ---   19.7   20.6   20.6   19.4  1022.8  0.00   0.0     0     0.00      0     0.0  0.00   0.0   0.000   0.029   24.5    53    0.00   673    1     98.4   30 
29/01/23  3:00a   19.6   19.8   19.6    89   17.7   0.0   ---  0.00   0.0   ---   19.6   20.4   20.4   19.3  1022.3  0.00   0.0     0     0.00      0     0.0  0.00   0.0   0.000   0.027   24.3    52    0.00   680    1     99.4   30 
29/01/23  3:30a   19.7   19.7   19.6    88   17.7   0.0   ---  0.00   0.0   ---   19.7   20.6   20.6   19.4  1021.2  0.00   0.0     0     0.00      0     0.0  0.00   0.0   0.000   0.029   24.5    52    0.00   675    1     98.7   30 
29/01/23  4:00a   19.8   19.8   19.7    87   17.6   0.0   ---  0.00   0.0   ---   19.8   20.6   20.6   19.4  1022.0  0.00   0.0     0     0.00      0     0.0  0.00   0.0   0.000   0.030   24.5    53    0.00   662    1     96.8   30 
29/01/23  4:30a   19.8   19.9   19.8    87   17.6   0.0   ---  0.00   0.0   ---   19.8   20.7   20.7   19.5  1023.0  0.00   0.0     0     0.00      0     0.0  0.00   0.0   0.000   0.031   24.5    54    0.00   650    1     95.0   30 
29/01/23  5:00a   19.9   19.9   19.8    88   17.8   0.0   ---  0.00   0.0   ---   19.9   20.8   20.8   19.6  1023.6  0.00   0.0     0     0.00      0     0.0  0.00   0.0   0.000   0.032   24.4    54    0.00   676    1     98.8   30 
29/01/23  5:30a   20.0   20.1   19.9    89   18.1   0.0   ---  0.00   0.0   ---   20.0   20.9   20.9   19.8  1024.5  0.00   0.0     0     0.00      0     0.0  0.00   0.0   0.000   0.035   24.5    54    0.00   682    1     99.7   30 
29/01/23  6:00a   19.8   20.0   19.8    90   18.1   0.0   ---  0.00   0.0   ---   19.8   20.7   20.7   19.5  1025.1  0.00   0.0     0     0.00      0     0.0  0.00   0.0   0.000   0.030   24.6    54    0.00   681    1     99.6   30 
29/01/23  6:30a   19.6   19.8   19.6    90   17.9   0.0   ---  0.00   0.0   ---   19.6   20.4   20.4   19.2  1025.0  0.00   0.0     0     0.00      0     0.0  0.00   0.0   0.000   0.025   24.6    55    0.00   681    1     99.6   30 
29/01/23  7:00a   19.4   19.6   19.4    91   17.9   0.0   ---  0.00   0.0   ---   19.4   20.2   20.2   19.3  1025.6  0.00   0.0     1     0.04     11     0.0  0.00   0.0   0.000   0.022   24.6    54    0.00   680    1     99.4   30 
29/01/23  7:30a   19.4   19.5   19.4    92   18.1   0.0   ---  0.00   0.0   ---   19.4   20.3   20.3   20.0  1025.1  0.00   0.0    23     0.99     30     0.0  0.00   0.0   0.000   0.023   24.6    53    0.00   681    1     99.6   30 
29/01/23  8:00a   19.6   19.6   19.4    93   18.4   0.0   ---  0.00   0.0   ---   19.6   20.4   20.4   20.7  1024.8  0.00   0.0    49     2.11     70     0.0  0.00   0.0   0.000   0.025   24.6    53    0.03   676    1     98.8   30 
29/01/23  8:30a   19.8   19.8   19.5    92   18.5   0.0   ---  0.00   0.0   ---   19.8   20.8   20.8   21.3  1024.9  0.00   0.0    71     3.05    120     0.0  0.00   0.0   0.000   0.031   24.6    53    0.00   674    1     98.5   30 
29/01/23  9:00a   20.1   20.1   19.8    89   18.2   0.0   ---  0.00   0.0   ---   20.1   21.1   21.1   22.8  1024.9  0.00   0.0   153     6.58    176     0.6  0.13   0.8   0.000   0.037   24.6    55    0.05   640    1     93.6   30 
29/01/23  9:30a   20.6   20.6   20.1    85   17.9   0.0   ---  0.00   0.0   ---   20.6   21.6   21.6   23.1  1025.0  0.00   0.0   151     6.49    172     0.8  0.17   0.9   0.000   0.046   24.6    55    0.00   633    1     92.5   30 
29/01/23 10:00a   21.1   21.1   20.6    84   18.3   0.0   ---  0.00   0.0   ---   21.1   21.9   21.9   23.9  1024.8  0.00   0.0   196     8.43    253     1.2  0.26   1.7   0.000   0.058   24.6    55    0.10   649    1     94.9   30 
29/01/23 10:30a   22.2   22.2   21.1    81   18.8   0.0   ---  0.00   0.0   ---   22.2   23.0   23.0   26.2  1024.9  0.00   0.0   295    12.69    343     2.1  0.45   2.3   0.000   0.080   24.4    57    0.00   634    1     92.7   30 
29/01/23 11:00a   22.3   22.3   22.2    79   18.5   0.0   ---  0.00   0.0   ---   22.3   23.1   23.1   24.9  1024.5  0.00   0.0   194     8.34    250     1.6  0.34   1.9   0.000   0.082   24.4    58    0.15   611    1     89.3   30 
29/01/23 11:30a   22.6   22.6   22.2    78   18.5   0.0   ---  0.00   0.0   ---   22.6   23.4   23.4   25.8  1024.5  0.00   0.0   245    10.54    336     2.1  0.45   3.0   0.000   0.088   24.3    56    0.00   639    1     93.4   30 
29/01/23 12:00p   23.5   23.5   22.6    74   18.6   0.0   ---  0.00   0.0   ---   23.5   24.6   24.6   27.1  1024.1  0.00   0.0   257    11.05    318     2.3  0.49   2.9   0.000   0.108   24.4    59    0.15   646    1     94.4   30 
29/01/23 12:30p   23.4   23.6   23.4    76   19.0   0.0   ---  0.00   0.0   ---   23.4   24.6   24.6   26.9  1023.9  0.00   0.0   233    10.02    251     2.2  0.47   2.3   0.000   0.106   24.4    54    0.00   639    1     93.4   30 
29/01/23  1:00p   23.9   24.1   23.4    73   18.8   0.0   ---  0.00   0.0   ---   23.9   25.1   25.1   27.9  1024.0  0.00   0.0   273    11.74    292     2.6  0.56   2.8   0.000   0.117   24.4    59    0.15   649    1     94.9   30 
29/01/23  1:30p   23.0   23.9   23.0    78   19.0   0.0   ---  0.00   0.0   ---   23.0   24.0   24.0   25.9  1024.3  0.00   0.0   206     8.86    234     2.0  0.43   2.3   0.000   0.097   24.4    55    0.00   648    1     94.7   30 
29/01/23  2:00p   23.1   23.1   22.9    79   19.2   0.0   ---  0.00   0.0   ---   23.1   24.1   24.1   26.0  1024.3  0.00   0.0   202     8.69    214     1.9  0.41   2.1   0.000   0.098   24.3    57    0.13   667    1     97.5   30 
29/01/23  2:30p   23.0   23.2   23.0    78   19.0   0.0   ---  0.00   0.0   ---   23.0   24.0   24.0   26.1  1024.7  0.00   0.0   220     9.46    241     2.0  0.43   2.2   0.000   0.097   24.5    59    0.00   662    1     96.8   30 
29/01/23  3:00p   23.2   23.2   22.9    78   19.2   0.0   ---  0.00   0.0   ---   23.2   24.3   24.3   27.6  1024.6  0.00   0.0   310    13.33    410     2.8  0.60   3.7   0.000   0.102   24.3    56    0.15   665    1     97.2   30 
29/01/23  3:30p   23.5   23.6   23.2    77   19.2   0.0   ---  0.00   0.0   ---   23.5   24.6   24.6   27.8  1024.1  0.00   0.0   295    12.69    439     2.5  0.54   3.6   0.000   0.108   24.5    61    0.00   656    1     95.9   30 
29/01/23  4:00p   23.1   23.5   23.1    76   18.6   0.0   ---  0.00   0.0   ---   23.1   24.1   24.1   26.5  1024.6  0.00   0.0   230     9.89    327     1.9  0.41   2.7   0.000   0.100   24.3    56    0.15   626    1     91.5   30